<?xml version="1.0" encoding="UTF-8" standalone="no" ?>
<gpx xmlns="http://www.topografix.com/GPX/1/1" xmlns:xsi="http://www.w3.org/2001/XMLSchema-instance" xsi:schemaLocation="http://www.topografix.com/GPX/1/1 http://www.topografix.com/GPX/1/1/gpx.xsd" version="1.1" creator="VisuGPX - https://www.visugpx.com">
  <metadata>
    <name>Cirque De Mallet 56km1030d+</name>
    <desc><![CDATA[Cirque De Mallet 56km1030d+
100% Routes faible circulation]]></desc>
  </metadata>
  <trk>
    <name><![CDATA[Cirque De Mallet 56km1030d+ on GPSies.com]]></name>
    <trkseg>
      <trkpt lat="45.03375" lon="3.106">
        <ele>772</ele>
        <time>2010-01-01T00:00:00Z</time>
      </trkpt>
      <trkpt lat="45.03395" lon="3.10947">
        <ele>774</ele>
        <time>2010-01-01T00:00:44Z</time>
      </trkpt>
      <trkpt lat="45.03395" lon="3.10954">
        <ele>774</ele>
        <time>2010-01-01T00:00:45Z</time>
      </trkpt>
      <trkpt lat="45.03395" lon="3.10973">
        <ele>774</ele>
        <time>2010-01-01T00:00:48Z</time>
      </trkpt>
      <trkpt lat="45.03392" lon="3.11007">
        <ele>775</ele>
        <time>2010-01-01T00:00:52Z</time>
      </trkpt>
      <trkpt lat="45.03382" lon="3.11065">
        <ele>780</ele>
        <time>2010-01-01T00:01:00Z</time>
      </trkpt>
      <trkpt lat="45.03371" lon="3.11085">
        <ele>780</ele>
        <time>2010-01-01T00:01:03Z</time>
      </trkpt>
      <trkpt lat="45.03313" lon="3.11115">
        <ele>776</ele>
        <time>2010-01-01T00:01:14Z</time>
      </trkpt>
      <trkpt lat="45.033" lon="3.11123">
        <ele>777</ele>
        <time>2010-01-01T00:01:17Z</time>
      </trkpt>
      <trkpt lat="45.03271" lon="3.1115">
        <ele>778</ele>
        <time>2010-01-01T00:01:23Z</time>
      </trkpt>
      <trkpt lat="45.0327" lon="3.11151">
        <ele>778</ele>
        <time>2010-01-01T00:01:23Z</time>
      </trkpt>
      <trkpt lat="45.03251" lon="3.11186">
        <ele>779</ele>
        <time>2010-01-01T00:01:29Z</time>
      </trkpt>
      <trkpt lat="45.03223" lon="3.11248">
        <ele>778</ele>
        <time>2010-01-01T00:01:38Z</time>
      </trkpt>
      <trkpt lat="45.03218" lon="3.11255">
        <ele>778</ele>
        <time>2010-01-01T00:01:40Z</time>
      </trkpt>
      <trkpt lat="45.03129" lon="3.11381">
        <ele>774</ele>
        <time>2010-01-01T00:02:03Z</time>
      </trkpt>
      <trkpt lat="45.03135" lon="3.11372">
        <ele>774</ele>
        <time>2010-01-01T00:02:04Z</time>
      </trkpt>
      <trkpt lat="45.03129" lon="3.11381">
        <ele>774</ele>
        <time>2010-01-01T00:02:06Z</time>
      </trkpt>
      <trkpt lat="45.03109" lon="3.11426">
        <ele>773</ele>
        <time>2010-01-01T00:02:13Z</time>
      </trkpt>
      <trkpt lat="45.03114" lon="3.11477">
        <ele>775</ele>
        <time>2010-01-01T00:02:19Z</time>
      </trkpt>
      <trkpt lat="45.03139" lon="3.11544">
        <ele>778</ele>
        <time>2010-01-01T00:02:29Z</time>
      </trkpt>
      <trkpt lat="45.03159" lon="3.11587">
        <ele>779</ele>
        <time>2010-01-01T00:02:36Z</time>
      </trkpt>
      <trkpt lat="45.03194" lon="3.11681">
        <ele>780</ele>
        <time>2010-01-01T00:02:49Z</time>
      </trkpt>
      <trkpt lat="45.03214" lon="3.11735">
        <ele>783</ele>
        <time>2010-01-01T00:02:57Z</time>
      </trkpt>
      <trkpt lat="45.03232" lon="3.11782">
        <ele>782</ele>
        <time>2010-01-01T00:03:04Z</time>
      </trkpt>
      <trkpt lat="45.03251" lon="3.11859">
        <ele>782</ele>
        <time>2010-01-01T00:03:15Z</time>
      </trkpt>
      <trkpt lat="45.03268" lon="3.11984">
        <ele>782</ele>
        <time>2010-01-01T00:03:31Z</time>
      </trkpt>
      <trkpt lat="45.03272" lon="3.12002">
        <ele>780</ele>
        <time>2010-01-01T00:03:33Z</time>
      </trkpt>
      <trkpt lat="45.03283" lon="3.12057">
        <ele>779</ele>
        <time>2010-01-01T00:03:41Z</time>
      </trkpt>
      <trkpt lat="45.03332" lon="3.12237">
        <ele>790</ele>
        <time>2010-01-01T00:04:05Z</time>
      </trkpt>
      <trkpt lat="45.0335" lon="3.12338">
        <ele>798</ele>
        <time>2010-01-01T00:04:19Z</time>
      </trkpt>
      <trkpt lat="45.03354" lon="3.12394">
        <ele>796</ele>
        <time>2010-01-01T00:04:26Z</time>
      </trkpt>
      <trkpt lat="45.03355" lon="3.12442">
        <ele>796</ele>
        <time>2010-01-01T00:04:32Z</time>
      </trkpt>
      <trkpt lat="45.03358" lon="3.12587">
        <ele>801</ele>
        <time>2010-01-01T00:04:51Z</time>
      </trkpt>
      <trkpt lat="45.03356" lon="3.12649">
        <ele>803</ele>
        <time>2010-01-01T00:04:59Z</time>
      </trkpt>
      <trkpt lat="45.03345" lon="3.12718">
        <ele>808</ele>
        <time>2010-01-01T00:05:08Z</time>
      </trkpt>
      <trkpt lat="45.0332" lon="3.12825">
        <ele>811</ele>
        <time>2010-01-01T00:05:22Z</time>
      </trkpt>
      <trkpt lat="45.03311" lon="3.12851">
        <ele>813</ele>
        <time>2010-01-01T00:05:26Z</time>
      </trkpt>
      <trkpt lat="45.03296" lon="3.12885">
        <ele>817</ele>
        <time>2010-01-01T00:05:31Z</time>
      </trkpt>
      <trkpt lat="45.03294" lon="3.12891">
        <ele>817</ele>
        <time>2010-01-01T00:05:32Z</time>
      </trkpt>
      <trkpt lat="45.03272" lon="3.12939">
        <ele>817</ele>
        <time>2010-01-01T00:05:39Z</time>
      </trkpt>
      <trkpt lat="45.03255" lon="3.12937">
        <ele>821</ele>
        <time>2010-01-01T00:05:43Z</time>
      </trkpt>
      <trkpt lat="45.03249" lon="3.12947">
        <ele>822</ele>
        <time>2010-01-01T00:05:44Z</time>
      </trkpt>
      <trkpt lat="45.03249" lon="3.12964">
        <ele>822</ele>
        <time>2010-01-01T00:05:47Z</time>
      </trkpt>
      <trkpt lat="45.03253" lon="3.12973">
        <ele>821</ele>
        <time>2010-01-01T00:05:48Z</time>
      </trkpt>
      <trkpt lat="45.03232" lon="3.13018">
        <ele>821</ele>
        <time>2010-01-01T00:05:55Z</time>
      </trkpt>
      <trkpt lat="45.03186" lon="3.13115">
        <ele>819</ele>
        <time>2010-01-01T00:06:10Z</time>
      </trkpt>
      <trkpt lat="45.03161" lon="3.13194">
        <ele>820</ele>
        <time>2010-01-01T00:06:21Z</time>
      </trkpt>
      <trkpt lat="45.03144" lon="3.13271">
        <ele>817</ele>
        <time>2010-01-01T00:06:31Z</time>
      </trkpt>
      <trkpt lat="45.03133" lon="3.13366">
        <ele>819</ele>
        <time>2010-01-01T00:06:44Z</time>
      </trkpt>
      <trkpt lat="45.03131" lon="3.13397">
        <ele>819</ele>
        <time>2010-01-01T00:06:48Z</time>
      </trkpt>
      <trkpt lat="45.03129" lon="3.13434">
        <ele>819</ele>
        <time>2010-01-01T00:06:53Z</time>
      </trkpt>
      <trkpt lat="45.0312" lon="3.13434">
        <ele>820</ele>
        <time>2010-01-01T00:06:54Z</time>
      </trkpt>
      <trkpt lat="45.03111" lon="3.13443">
        <ele>821</ele>
        <time>2010-01-01T00:06:56Z</time>
      </trkpt>
      <trkpt lat="45.03109" lon="3.1346">
        <ele>821</ele>
        <time>2010-01-01T00:06:58Z</time>
      </trkpt>
      <trkpt lat="45.03124" lon="3.13475">
        <ele>819</ele>
        <time>2010-01-01T00:07:02Z</time>
      </trkpt>
      <trkpt lat="45.03118" lon="3.1354">
        <ele>819</ele>
        <time>2010-01-01T00:07:10Z</time>
      </trkpt>
      <trkpt lat="45.03114" lon="3.13576">
        <ele>821</ele>
        <time>2010-01-01T00:07:15Z</time>
      </trkpt>
      <trkpt lat="45.03107" lon="3.13649">
        <ele>819</ele>
        <time>2010-01-01T00:07:24Z</time>
      </trkpt>
      <trkpt lat="45.03092" lon="3.13793">
        <ele>820</ele>
        <time>2010-01-01T00:07:43Z</time>
      </trkpt>
      <trkpt lat="45.03086" lon="3.13859">
        <ele>821</ele>
        <time>2010-01-01T00:07:52Z</time>
      </trkpt>
      <trkpt lat="45.03077" lon="3.13924">
        <ele>822</ele>
        <time>2010-01-01T00:08:00Z</time>
      </trkpt>
      <trkpt lat="45.03071" lon="3.14003">
        <ele>824</ele>
        <time>2010-01-01T00:08:10Z</time>
      </trkpt>
      <trkpt lat="45.03064" lon="3.14048">
        <ele>823</ele>
        <time>2010-01-01T00:08:16Z</time>
      </trkpt>
      <trkpt lat="45.03062" lon="3.14078">
        <ele>822</ele>
        <time>2010-01-01T00:08:20Z</time>
      </trkpt>
      <trkpt lat="45.03049" lon="3.14108">
        <ele>822</ele>
        <time>2010-01-01T00:08:25Z</time>
      </trkpt>
      <trkpt lat="45.03038" lon="3.1411">
        <ele>822</ele>
        <time>2010-01-01T00:08:27Z</time>
      </trkpt>
      <trkpt lat="45.03021" lon="3.1411">
        <ele>823</ele>
        <time>2010-01-01T00:08:30Z</time>
      </trkpt>
      <trkpt lat="45.03006" lon="3.14121">
        <ele>822</ele>
        <time>2010-01-01T00:08:33Z</time>
      </trkpt>
      <trkpt lat="45.02989" lon="3.14138">
        <ele>823</ele>
        <time>2010-01-01T00:08:37Z</time>
      </trkpt>
      <trkpt lat="45.02974" lon="3.14181">
        <ele>824</ele>
        <time>2010-01-01T00:08:43Z</time>
      </trkpt>
      <trkpt lat="45.02957" lon="3.14276">
        <ele>822</ele>
        <time>2010-01-01T00:08:55Z</time>
      </trkpt>
      <trkpt lat="45.02938" lon="3.14323">
        <ele>821</ele>
        <time>2010-01-01T00:09:02Z</time>
      </trkpt>
      <trkpt lat="45.02914" lon="3.14357">
        <ele>820</ele>
        <time>2010-01-01T00:09:08Z</time>
      </trkpt>
      <trkpt lat="45.02873" lon="3.14387">
        <ele>818</ele>
        <time>2010-01-01T00:09:17Z</time>
      </trkpt>
      <trkpt lat="45.02839" lon="3.14398">
        <ele>814</ele>
        <time>2010-01-01T00:09:23Z</time>
      </trkpt>
      <trkpt lat="45.02781" lon="3.14393">
        <ele>813</ele>
        <time>2010-01-01T00:09:34Z</time>
      </trkpt>
      <trkpt lat="45.02766" lon="3.14391">
        <ele>811</ele>
        <time>2010-01-01T00:09:37Z</time>
      </trkpt>
      <trkpt lat="45.02699" lon="3.14415">
        <ele>807</ele>
        <time>2010-01-01T00:09:49Z</time>
      </trkpt>
      <trkpt lat="45.02663" lon="3.14415">
        <ele>800</ele>
        <time>2010-01-01T00:09:56Z</time>
      </trkpt>
      <trkpt lat="45.02633" lon="3.14398">
        <ele>798</ele>
        <time>2010-01-01T00:10:02Z</time>
      </trkpt>
      <trkpt lat="45.02588" lon="3.14346">
        <ele>799</ele>
        <time>2010-01-01T00:10:12Z</time>
      </trkpt>
      <trkpt lat="45.0256" lon="3.14331">
        <ele>802</ele>
        <time>2010-01-01T00:10:18Z</time>
      </trkpt>
      <trkpt lat="45.02485" lon="3.14318">
        <ele>798</ele>
        <time>2010-01-01T00:10:31Z</time>
      </trkpt>
      <trkpt lat="45.02457" lon="3.14325">
        <ele>795</ele>
        <time>2010-01-01T00:10:36Z</time>
      </trkpt>
      <trkpt lat="45.0244" lon="3.14342">
        <ele>790</ele>
        <time>2010-01-01T00:10:40Z</time>
      </trkpt>
      <trkpt lat="45.02423" lon="3.14376">
        <ele>786</ele>
        <time>2010-01-01T00:10:46Z</time>
      </trkpt>
      <trkpt lat="45.02408" lon="3.14447">
        <ele>792</ele>
        <time>2010-01-01T00:10:55Z</time>
      </trkpt>
      <trkpt lat="45.02386" lon="3.14548">
        <ele>801</ele>
        <time>2010-01-01T00:11:09Z</time>
      </trkpt>
      <trkpt lat="45.02362" lon="3.14638">
        <ele>800</ele>
        <time>2010-01-01T00:11:21Z</time>
      </trkpt>
      <trkpt lat="45.02347" lon="3.14666">
        <ele>803</ele>
        <time>2010-01-01T00:11:26Z</time>
      </trkpt>
      <trkpt lat="45.02324" lon="3.14696">
        <ele>807</ele>
        <time>2010-01-01T00:11:31Z</time>
      </trkpt>
      <trkpt lat="45.02236" lon="3.14745">
        <ele>813</ele>
        <time>2010-01-01T00:11:49Z</time>
      </trkpt>
      <trkpt lat="45.02176" lon="3.14756">
        <ele>813</ele>
        <time>2010-01-01T00:12:00Z</time>
      </trkpt>
      <trkpt lat="45.02092" lon="3.14741">
        <ele>819</ele>
        <time>2010-01-01T00:12:15Z</time>
      </trkpt>
      <trkpt lat="45.02047" lon="3.14748">
        <ele>820</ele>
        <time>2010-01-01T00:12:23Z</time>
      </trkpt>
      <trkpt lat="45.01897" lon="3.14793">
        <ele>827</ele>
        <time>2010-01-01T00:12:51Z</time>
      </trkpt>
      <trkpt lat="45.0188" lon="3.14804">
        <ele>829</ele>
        <time>2010-01-01T00:12:55Z</time>
      </trkpt>
      <trkpt lat="45.01796" lon="3.14859">
        <ele>840</ele>
        <time>2010-01-01T00:13:11Z</time>
      </trkpt>
      <trkpt lat="45.0176" lon="3.14889">
        <ele>842</ele>
        <time>2010-01-01T00:13:19Z</time>
      </trkpt>
      <trkpt lat="45.01706" lon="3.14954">
        <ele>844</ele>
        <time>2010-01-01T00:13:32Z</time>
      </trkpt>
      <trkpt lat="45.01635" lon="3.15074">
        <ele>852</ele>
        <time>2010-01-01T00:13:52Z</time>
      </trkpt>
      <trkpt lat="45.01481" lon="3.15308">
        <ele>864</ele>
        <time>2010-01-01T00:14:33Z</time>
      </trkpt>
      <trkpt lat="45.01408" lon="3.154">
        <ele>870</ele>
        <time>2010-01-01T00:14:51Z</time>
      </trkpt>
      <trkpt lat="45.01356" lon="3.15456">
        <ele>872</ele>
        <time>2010-01-01T00:15:03Z</time>
      </trkpt>
      <trkpt lat="45.01328" lon="3.15486">
        <ele>876</ele>
        <time>2010-01-01T00:15:09Z</time>
      </trkpt>
      <trkpt lat="45.0127" lon="3.15544">
        <ele>878</ele>
        <time>2010-01-01T00:15:22Z</time>
      </trkpt>
      <trkpt lat="45.01245" lon="3.15557">
        <ele>879</ele>
        <time>2010-01-01T00:15:27Z</time>
      </trkpt>
      <trkpt lat="45.01208" lon="3.15561">
        <ele>880</ele>
        <time>2010-01-01T00:15:34Z</time>
      </trkpt>
      <trkpt lat="45.01169" lon="3.15546">
        <ele>884</ele>
        <time>2010-01-01T00:15:41Z</time>
      </trkpt>
      <trkpt lat="45.01142" lon="3.15542">
        <ele>883</ele>
        <time>2010-01-01T00:15:46Z</time>
      </trkpt>
      <trkpt lat="45.01122" lon="3.15554">
        <ele>880</ele>
        <time>2010-01-01T00:15:50Z</time>
      </trkpt>
      <trkpt lat="45.01107" lon="3.15587">
        <ele>877</ele>
        <time>2010-01-01T00:15:55Z</time>
      </trkpt>
      <trkpt lat="45.01103" lon="3.15647">
        <ele>880</ele>
        <time>2010-01-01T00:16:03Z</time>
      </trkpt>
      <trkpt lat="45.0109" lon="3.15675">
        <ele>880</ele>
        <time>2010-01-01T00:16:07Z</time>
      </trkpt>
      <trkpt lat="45.01062" lon="3.15705">
        <ele>880</ele>
        <time>2010-01-01T00:16:13Z</time>
      </trkpt>
      <trkpt lat="45.01036" lon="3.15728">
        <ele>881</ele>
        <time>2010-01-01T00:16:19Z</time>
      </trkpt>
      <trkpt lat="45.00968" lon="3.1579">
        <ele>881</ele>
        <time>2010-01-01T00:16:34Z</time>
      </trkpt>
      <trkpt lat="45.00951" lon="3.15803">
        <ele>881</ele>
        <time>2010-01-01T00:16:37Z</time>
      </trkpt>
      <trkpt lat="45.00843" lon="3.15874">
        <ele>879</ele>
        <time>2010-01-01T00:16:59Z</time>
      </trkpt>
      <trkpt lat="45.00777" lon="3.15906">
        <ele>876</ele>
        <time>2010-01-01T00:17:12Z</time>
      </trkpt>
      <trkpt lat="45.00715" lon="3.15938">
        <ele>873</ele>
        <time>2010-01-01T00:17:24Z</time>
      </trkpt>
      <trkpt lat="45.00521" lon="3.16061">
        <ele>863</ele>
        <time>2010-01-01T00:18:02Z</time>
      </trkpt>
      <trkpt lat="45.00058" lon="3.16426">
        <ele>854</ele>
        <time>2010-01-01T00:19:39Z</time>
      </trkpt>
      <trkpt lat="45" lon="3.16453">
        <ele>856</ele>
        <time>2010-01-01T00:19:50Z</time>
      </trkpt>
      <trkpt lat="44.99942" lon="3.16462">
        <ele>862</ele>
        <time>2010-01-01T00:20:00Z</time>
      </trkpt>
      <trkpt lat="44.99839" lon="3.16456">
        <ele>868</ele>
        <time>2010-01-01T00:20:19Z</time>
      </trkpt>
      <trkpt lat="44.99833" lon="3.16456">
        <ele>868</ele>
        <time>2010-01-01T00:20:20Z</time>
      </trkpt>
      <trkpt lat="44.99822" lon="3.16456">
        <ele>868</ele>
        <time>2010-01-01T00:20:22Z</time>
      </trkpt>
      <trkpt lat="44.99762" lon="3.16451">
        <ele>867</ele>
        <time>2010-01-01T00:20:33Z</time>
      </trkpt>
      <trkpt lat="44.99268" lon="3.16421">
        <ele>874</ele>
        <time>2010-01-01T00:22:03Z</time>
      </trkpt>
      <trkpt lat="44.99088" lon="3.16385">
        <ele>868</ele>
        <time>2010-01-01T00:22:36Z</time>
      </trkpt>
      <trkpt lat="44.98994" lon="3.16376">
        <ele>866</ele>
        <time>2010-01-01T00:22:53Z</time>
      </trkpt>
      <trkpt lat="44.98927" lon="3.16381">
        <ele>868</ele>
        <time>2010-01-01T00:23:06Z</time>
      </trkpt>
      <trkpt lat="44.98867" lon="3.16398">
        <ele>869</ele>
        <time>2010-01-01T00:23:17Z</time>
      </trkpt>
      <trkpt lat="44.98766" lon="3.16458">
        <ele>871</ele>
        <time>2010-01-01T00:23:37Z</time>
      </trkpt>
      <trkpt lat="44.9864" lon="3.16548">
        <ele>872</ele>
        <time>2010-01-01T00:24:02Z</time>
      </trkpt>
      <trkpt lat="44.98607" lon="3.16569">
        <ele>870</ele>
        <time>2010-01-01T00:24:09Z</time>
      </trkpt>
      <trkpt lat="44.98582" lon="3.16586">
        <ele>869</ele>
        <time>2010-01-01T00:24:14Z</time>
      </trkpt>
      <trkpt lat="44.98515" lon="3.16634">
        <ele>867</ele>
        <time>2010-01-01T00:24:28Z</time>
      </trkpt>
      <trkpt lat="44.98404" lon="3.16711">
        <ele>866</ele>
        <time>2010-01-01T00:24:50Z</time>
      </trkpt>
      <trkpt lat="44.98271" lon="3.16801">
        <ele>863</ele>
        <time>2010-01-01T00:25:17Z</time>
      </trkpt>
      <trkpt lat="44.98174" lon="3.16857">
        <ele>863</ele>
        <time>2010-01-01T00:25:36Z</time>
      </trkpt>
      <trkpt lat="44.98135" lon="3.1687">
        <ele>861</ele>
        <time>2010-01-01T00:25:43Z</time>
      </trkpt>
      <trkpt lat="44.98114" lon="3.16863">
        <ele>859</ele>
        <time>2010-01-01T00:25:47Z</time>
      </trkpt>
      <trkpt lat="44.98102" lon="3.16848">
        <ele>856</ele>
        <time>2010-01-01T00:25:50Z</time>
      </trkpt>
      <trkpt lat="44.98092" lon="3.16835">
        <ele>853</ele>
        <time>2010-01-01T00:25:53Z</time>
      </trkpt>
      <trkpt lat="44.98" lon="3.16683">
        <ele>848</ele>
        <time>2010-01-01T00:26:18Z</time>
      </trkpt>
      <trkpt lat="44.97981" lon="3.1667">
        <ele>843</ele>
        <time>2010-01-01T00:26:22Z</time>
      </trkpt>
      <trkpt lat="44.97959" lon="3.16674">
        <ele>839</ele>
        <time>2010-01-01T00:26:26Z</time>
      </trkpt>
      <trkpt lat="44.97953" lon="3.16683">
        <ele>837</ele>
        <time>2010-01-01T00:26:28Z</time>
      </trkpt>
      <trkpt lat="44.9794" lon="3.16705">
        <ele>833</ele>
        <time>2010-01-01T00:26:31Z</time>
      </trkpt>
      <trkpt lat="44.97931" lon="3.16728">
        <ele>830</ele>
        <time>2010-01-01T00:26:35Z</time>
      </trkpt>
      <trkpt lat="44.97921" lon="3.16765">
        <ele>828</ele>
        <time>2010-01-01T00:26:40Z</time>
      </trkpt>
      <trkpt lat="44.9791" lon="3.16777">
        <ele>828</ele>
        <time>2010-01-01T00:26:43Z</time>
      </trkpt>
      <trkpt lat="44.97884" lon="3.16786">
        <ele>827</ele>
        <time>2010-01-01T00:26:47Z</time>
      </trkpt>
      <trkpt lat="44.97809" lon="3.16797">
        <ele>815</ele>
        <time>2010-01-01T00:27:01Z</time>
      </trkpt>
      <trkpt lat="44.97728" lon="3.16812">
        <ele>811</ele>
        <time>2010-01-01T00:27:16Z</time>
      </trkpt>
      <trkpt lat="44.97687" lon="3.16831">
        <ele>805</ele>
        <time>2010-01-01T00:27:24Z</time>
      </trkpt>
      <trkpt lat="44.97515" lon="3.16953">
        <ele>789</ele>
        <time>2010-01-01T00:27:59Z</time>
      </trkpt>
      <trkpt lat="44.9747" lon="3.17001">
        <ele>782</ele>
        <time>2010-01-01T00:28:09Z</time>
      </trkpt>
      <trkpt lat="44.97457" lon="3.16996">
        <ele>775</ele>
        <time>2010-01-01T00:28:11Z</time>
      </trkpt>
      <trkpt lat="44.97455" lon="3.16986">
        <ele>774</ele>
        <time>2010-01-01T00:28:13Z</time>
      </trkpt>
      <trkpt lat="44.97459" lon="3.16932">
        <ele>772</ele>
        <time>2010-01-01T00:28:20Z</time>
      </trkpt>
      <trkpt lat="44.97481" lon="3.16859">
        <ele>771</ele>
        <time>2010-01-01T00:28:30Z</time>
      </trkpt>
      <trkpt lat="44.97522" lon="3.1679">
        <ele>773</ele>
        <time>2010-01-01T00:28:42Z</time>
      </trkpt>
      <trkpt lat="44.97519" lon="3.1678">
        <ele>771</ele>
        <time>2010-01-01T00:28:43Z</time>
      </trkpt>
      <trkpt lat="44.97511" lon="3.16767">
        <ele>768</ele>
        <time>2010-01-01T00:28:45Z</time>
      </trkpt>
      <trkpt lat="44.97496" lon="3.16769">
        <ele>765</ele>
        <time>2010-01-01T00:28:48Z</time>
      </trkpt>
      <trkpt lat="44.97477" lon="3.16777">
        <ele>759</ele>
        <time>2010-01-01T00:28:52Z</time>
      </trkpt>
      <trkpt lat="44.97455" lon="3.16801">
        <ele>755</ele>
        <time>2010-01-01T00:28:57Z</time>
      </trkpt>
      <trkpt lat="44.97397" lon="3.16934">
        <ele>750</ele>
        <time>2010-01-01T00:29:17Z</time>
      </trkpt>
      <trkpt lat="44.97384" lon="3.16979">
        <ele>747</ele>
        <time>2010-01-01T00:29:23Z</time>
      </trkpt>
      <trkpt lat="44.97376" lon="3.17084">
        <ele>749</ele>
        <time>2010-01-01T00:29:37Z</time>
      </trkpt>
      <trkpt lat="44.9738" lon="3.17123">
        <ele>748</ele>
        <time>2010-01-01T00:29:42Z</time>
      </trkpt>
      <trkpt lat="44.97425" lon="3.17222">
        <ele>741</ele>
        <time>2010-01-01T00:29:57Z</time>
      </trkpt>
      <trkpt lat="44.97427" lon="3.17252">
        <ele>735</ele>
        <time>2010-01-01T00:30:01Z</time>
      </trkpt>
      <trkpt lat="44.9741" lon="3.17284">
        <ele>735</ele>
        <time>2010-01-01T00:30:06Z</time>
      </trkpt>
      <trkpt lat="44.97357" lon="3.17356">
        <ele>735</ele>
        <time>2010-01-01T00:30:19Z</time>
      </trkpt>
      <trkpt lat="44.97324" lon="3.174">
        <ele>735</ele>
        <time>2010-01-01T00:30:27Z</time>
      </trkpt>
      <trkpt lat="44.97307" lon="3.17423">
        <ele>735</ele>
        <time>2010-01-01T00:30:32Z</time>
      </trkpt>
      <trkpt lat="44.9729" lon="3.17447">
        <ele>744</ele>
        <time>2010-01-01T00:30:36Z</time>
      </trkpt>
      <trkpt lat="44.97264" lon="3.17402">
        <ele>748</ele>
        <time>2010-01-01T00:30:44Z</time>
      </trkpt>
      <trkpt lat="44.97249" lon="3.17378">
        <ele>744</ele>
        <time>2010-01-01T00:30:48Z</time>
      </trkpt>
      <trkpt lat="44.97228" lon="3.17365">
        <ele>746</ele>
        <time>2010-01-01T00:30:52Z</time>
      </trkpt>
      <trkpt lat="44.972" lon="3.1735">
        <ele>743</ele>
        <time>2010-01-01T00:30:57Z</time>
      </trkpt>
      <trkpt lat="44.9715" lon="3.17303">
        <ele>739</ele>
        <time>2010-01-01T00:31:08Z</time>
      </trkpt>
      <trkpt lat="44.97129" lon="3.1728">
        <ele>748</ele>
        <time>2010-01-01T00:31:13Z</time>
      </trkpt>
      <trkpt lat="44.97125" lon="3.17267">
        <ele>754</ele>
        <time>2010-01-01T00:31:15Z</time>
      </trkpt>
      <trkpt lat="44.97129" lon="3.17245">
        <ele>758</ele>
        <time>2010-01-01T00:31:18Z</time>
      </trkpt>
      <trkpt lat="44.97161" lon="3.17181">
        <ele>763</ele>
        <time>2010-01-01T00:31:28Z</time>
      </trkpt>
      <trkpt lat="44.97174" lon="3.17116">
        <ele>756</ele>
        <time>2010-01-01T00:31:37Z</time>
      </trkpt>
      <trkpt lat="44.97191" lon="3.16915">
        <ele>764</ele>
        <time>2010-01-01T00:32:03Z</time>
      </trkpt>
      <trkpt lat="44.97189" lon="3.16831">
        <ele>770</ele>
        <time>2010-01-01T00:32:14Z</time>
      </trkpt>
      <trkpt lat="44.97193" lon="3.16814">
        <ele>769</ele>
        <time>2010-01-01T00:32:16Z</time>
      </trkpt>
      <trkpt lat="44.97234" lon="3.16756">
        <ele>757</ele>
        <time>2010-01-01T00:32:26Z</time>
      </trkpt>
      <trkpt lat="44.97268" lon="3.16623">
        <ele>761</ele>
        <time>2010-01-01T00:32:45Z</time>
      </trkpt>
      <trkpt lat="44.97309" lon="3.16481">
        <ele>756</ele>
        <time>2010-01-01T00:33:04Z</time>
      </trkpt>
      <trkpt lat="44.9735" lon="3.16406">
        <ele>748</ele>
        <time>2010-01-01T00:33:17Z</time>
      </trkpt>
      <trkpt lat="44.97352" lon="3.16383">
        <ele>747</ele>
        <time>2010-01-01T00:33:20Z</time>
      </trkpt>
      <trkpt lat="44.97337" lon="3.16368">
        <ele>745</ele>
        <time>2010-01-01T00:33:23Z</time>
      </trkpt>
      <trkpt lat="44.97303" lon="3.16378">
        <ele>748</ele>
        <time>2010-01-01T00:33:29Z</time>
      </trkpt>
      <trkpt lat="44.97264" lon="3.16404">
        <ele>748</ele>
        <time>2010-01-01T00:33:37Z</time>
      </trkpt>
      <trkpt lat="44.97221" lon="3.16447">
        <ele>757</ele>
        <time>2010-01-01T00:33:47Z</time>
      </trkpt>
      <trkpt lat="44.97189" lon="3.1646">
        <ele>762</ele>
        <time>2010-01-01T00:33:53Z</time>
      </trkpt>
      <trkpt lat="44.97163" lon="3.16449">
        <ele>760</ele>
        <time>2010-01-01T00:33:58Z</time>
      </trkpt>
      <trkpt lat="44.97099" lon="3.16398">
        <ele>751</ele>
        <time>2010-01-01T00:34:11Z</time>
      </trkpt>
      <trkpt lat="44.97075" lon="3.16396">
        <ele>754</ele>
        <time>2010-01-01T00:34:15Z</time>
      </trkpt>
      <trkpt lat="44.97056" lon="3.16402">
        <ele>753</ele>
        <time>2010-01-01T00:34:19Z</time>
      </trkpt>
      <trkpt lat="44.9703" lon="3.16421">
        <ele>753</ele>
        <time>2010-01-01T00:34:24Z</time>
      </trkpt>
      <trkpt lat="44.9702" lon="3.16436">
        <ele>752</ele>
        <time>2010-01-01T00:34:27Z</time>
      </trkpt>
      <trkpt lat="44.97013" lon="3.16466">
        <ele>754</ele>
        <time>2010-01-01T00:34:31Z</time>
      </trkpt>
      <trkpt lat="44.97005" lon="3.16531">
        <ele>763</ele>
        <time>2010-01-01T00:34:40Z</time>
      </trkpt>
      <trkpt lat="44.96998" lon="3.16544">
        <ele>763</ele>
        <time>2010-01-01T00:34:42Z</time>
      </trkpt>
      <trkpt lat="44.96987" lon="3.1655">
        <ele>759</ele>
        <time>2010-01-01T00:34:44Z</time>
      </trkpt>
      <trkpt lat="44.96964" lon="3.16544">
        <ele>751</ele>
        <time>2010-01-01T00:34:48Z</time>
      </trkpt>
      <trkpt lat="44.96936" lon="3.1652">
        <ele>748</ele>
        <time>2010-01-01T00:34:54Z</time>
      </trkpt>
      <trkpt lat="44.96839" lon="3.16428">
        <ele>765</ele>
        <time>2010-01-01T00:35:15Z</time>
      </trkpt>
      <trkpt lat="44.96799" lon="3.16411">
        <ele>775</ele>
        <time>2010-01-01T00:35:23Z</time>
      </trkpt>
      <trkpt lat="44.96586" lon="3.16402">
        <ele>784</ele>
        <time>2010-01-01T00:36:02Z</time>
      </trkpt>
      <trkpt lat="44.96464" lon="3.16438">
        <ele>788</ele>
        <time>2010-01-01T00:36:24Z</time>
      </trkpt>
      <trkpt lat="44.96436" lon="3.16423">
        <ele>791</ele>
        <time>2010-01-01T00:36:30Z</time>
      </trkpt>
      <trkpt lat="44.96393" lon="3.16353">
        <ele>810</ele>
        <time>2010-01-01T00:36:42Z</time>
      </trkpt>
      <trkpt lat="44.96361" lon="3.16333">
        <ele>812</ele>
        <time>2010-01-01T00:36:48Z</time>
      </trkpt>
      <trkpt lat="44.9617" lon="3.16372">
        <ele>809</ele>
        <time>2010-01-01T00:37:23Z</time>
      </trkpt>
      <trkpt lat="44.96135" lon="3.1637">
        <ele>811</ele>
        <time>2010-01-01T00:37:30Z</time>
      </trkpt>
      <trkpt lat="44.96125" lon="3.16359">
        <ele>812</ele>
        <time>2010-01-01T00:37:32Z</time>
      </trkpt>
      <trkpt lat="44.96112" lon="3.16331">
        <ele>815</ele>
        <time>2010-01-01T00:37:36Z</time>
      </trkpt>
      <trkpt lat="44.96097" lon="3.16198">
        <ele>818</ele>
        <time>2010-01-01T00:37:54Z</time>
      </trkpt>
      <trkpt lat="44.96088" lon="3.16127">
        <ele>822</ele>
        <time>2010-01-01T00:38:03Z</time>
      </trkpt>
      <trkpt lat="44.9608" lon="3.16108">
        <ele>824</ele>
        <time>2010-01-01T00:38:06Z</time>
      </trkpt>
      <trkpt lat="44.96067" lon="3.16093">
        <ele>824</ele>
        <time>2010-01-01T00:38:09Z</time>
      </trkpt>
      <trkpt lat="44.9605" lon="3.16084">
        <ele>825</ele>
        <time>2010-01-01T00:38:12Z</time>
      </trkpt>
      <trkpt lat="44.9599" lon="3.16089">
        <ele>828</ele>
        <time>2010-01-01T00:38:23Z</time>
      </trkpt>
      <trkpt lat="44.95968" lon="3.16082">
        <ele>829</ele>
        <time>2010-01-01T00:38:27Z</time>
      </trkpt>
      <trkpt lat="44.95938" lon="3.16054">
        <ele>829</ele>
        <time>2010-01-01T00:38:34Z</time>
      </trkpt>
      <trkpt lat="44.95904" lon="3.15994">
        <ele>835</ele>
        <time>2010-01-01T00:38:43Z</time>
      </trkpt>
      <trkpt lat="44.95887" lon="3.15977">
        <ele>839</ele>
        <time>2010-01-01T00:38:47Z</time>
      </trkpt>
      <trkpt lat="44.95867" lon="3.15966">
        <ele>842</ele>
        <time>2010-01-01T00:38:51Z</time>
      </trkpt>
      <trkpt lat="44.95758" lon="3.15936">
        <ele>843</ele>
        <time>2010-01-01T00:39:11Z</time>
      </trkpt>
      <trkpt lat="44.95678" lon="3.15917">
        <ele>843</ele>
        <time>2010-01-01T00:39:26Z</time>
      </trkpt>
      <trkpt lat="44.95584" lon="3.15889">
        <ele>847</ele>
        <time>2010-01-01T00:39:44Z</time>
      </trkpt>
      <trkpt lat="44.95372" lon="3.15765">
        <ele>853</ele>
        <time>2010-01-01T00:40:25Z</time>
      </trkpt>
      <trkpt lat="44.95224" lon="3.15687">
        <ele>855</ele>
        <time>2010-01-01T00:40:54Z</time>
      </trkpt>
      <trkpt lat="44.9509" lon="3.15569">
        <ele>861</ele>
        <time>2010-01-01T00:41:23Z</time>
      </trkpt>
      <trkpt lat="44.94496" lon="3.15134">
        <ele>891</ele>
        <time>2010-01-01T00:43:25Z</time>
      </trkpt>
      <trkpt lat="44.94436" lon="3.15069">
        <ele>891</ele>
        <time>2010-01-01T00:43:38Z</time>
      </trkpt>
      <trkpt lat="44.94331" lon="3.14917">
        <ele>904</ele>
        <time>2010-01-01T00:44:06Z</time>
      </trkpt>
      <trkpt lat="44.94316" lon="3.14891">
        <ele>906</ele>
        <time>2010-01-01T00:44:10Z</time>
      </trkpt>
      <trkpt lat="44.94262" lon="3.14812">
        <ele>908</ele>
        <time>2010-01-01T00:44:24Z</time>
      </trkpt>
      <trkpt lat="44.94249" lon="3.14803">
        <ele>909</ele>
        <time>2010-01-01T00:44:27Z</time>
      </trkpt>
      <trkpt lat="44.94228" lon="3.14801">
        <ele>911</ele>
        <time>2010-01-01T00:44:31Z</time>
      </trkpt>
      <trkpt lat="44.94217" lon="3.14803">
        <ele>912</ele>
        <time>2010-01-01T00:44:33Z</time>
      </trkpt>
      <trkpt lat="44.94187" lon="3.1481">
        <ele>913</ele>
        <time>2010-01-01T00:44:38Z</time>
      </trkpt>
      <trkpt lat="44.94136" lon="3.14803">
        <ele>916</ele>
        <time>2010-01-01T00:44:48Z</time>
      </trkpt>
      <trkpt lat="44.94097" lon="3.14801">
        <ele>920</ele>
        <time>2010-01-01T00:44:55Z</time>
      </trkpt>
      <trkpt lat="44.94005" lon="3.1484">
        <ele>928</ele>
        <time>2010-01-01T00:45:12Z</time>
      </trkpt>
      <trkpt lat="44.93992" lon="3.14829">
        <ele>931</ele>
        <time>2010-01-01T00:45:15Z</time>
      </trkpt>
      <trkpt lat="44.93992" lon="3.14814">
        <ele>932</ele>
        <time>2010-01-01T00:45:17Z</time>
      </trkpt>
      <trkpt lat="44.94005" lon="3.14795">
        <ele>932</ele>
        <time>2010-01-01T00:45:20Z</time>
      </trkpt>
      <trkpt lat="44.94039" lon="3.14739">
        <ele>932</ele>
        <time>2010-01-01T00:45:30Z</time>
      </trkpt>
      <trkpt lat="44.9405" lon="3.14696">
        <ele>936</ele>
        <time>2010-01-01T00:45:36Z</time>
      </trkpt>
      <trkpt lat="44.9405" lon="3.14672">
        <ele>937</ele>
        <time>2010-01-01T00:45:39Z</time>
      </trkpt>
      <trkpt lat="44.94045" lon="3.14653">
        <ele>938</ele>
        <time>2010-01-01T00:45:41Z</time>
      </trkpt>
      <trkpt lat="44.94022" lon="3.14615">
        <ele>936</ele>
        <time>2010-01-01T00:45:48Z</time>
      </trkpt>
      <trkpt lat="44.93968" lon="3.14576">
        <ele>933</ele>
        <time>2010-01-01T00:45:59Z</time>
      </trkpt>
      <trkpt lat="44.93927" lon="3.14559">
        <ele>932</ele>
        <time>2010-01-01T00:46:06Z</time>
      </trkpt>
      <trkpt lat="44.93895" lon="3.1455">
        <ele>933</ele>
        <time>2010-01-01T00:46:12Z</time>
      </trkpt>
      <trkpt lat="44.93874" lon="3.14539">
        <ele>934</ele>
        <time>2010-01-01T00:46:17Z</time>
      </trkpt>
      <trkpt lat="44.93848" lon="3.14509">
        <ele>936</ele>
        <time>2010-01-01T00:46:23Z</time>
      </trkpt>
      <trkpt lat="44.93831" lon="3.14475">
        <ele>938</ele>
        <time>2010-01-01T00:46:28Z</time>
      </trkpt>
      <trkpt lat="44.93824" lon="3.14441">
        <ele>938</ele>
        <time>2010-01-01T00:46:33Z</time>
      </trkpt>
      <trkpt lat="44.93831" lon="3.14409">
        <ele>938</ele>
        <time>2010-01-01T00:46:37Z</time>
      </trkpt>
      <trkpt lat="44.93859" lon="3.14355">
        <ele>938</ele>
        <time>2010-01-01T00:46:45Z</time>
      </trkpt>
      <trkpt lat="44.93867" lon="3.14325">
        <ele>939</ele>
        <time>2010-01-01T00:46:50Z</time>
      </trkpt>
      <trkpt lat="44.9387" lon="3.14301">
        <ele>940</ele>
        <time>2010-01-01T00:46:53Z</time>
      </trkpt>
      <trkpt lat="44.93874" lon="3.14271">
        <ele>940</ele>
        <time>2010-01-01T00:46:57Z</time>
      </trkpt>
      <trkpt lat="44.93912" lon="3.14127">
        <ele>941</ele>
        <time>2010-01-01T00:47:16Z</time>
      </trkpt>
      <trkpt lat="44.9394" lon="3.14072">
        <ele>945</ele>
        <time>2010-01-01T00:47:25Z</time>
      </trkpt>
      <trkpt lat="44.93979" lon="3.14031">
        <ele>948</ele>
        <time>2010-01-01T00:47:34Z</time>
      </trkpt>
      <trkpt lat="44.94009" lon="3.13988">
        <ele>948</ele>
        <time>2010-01-01T00:47:42Z</time>
      </trkpt>
      <trkpt lat="44.9403" lon="3.13945">
        <ele>948</ele>
        <time>2010-01-01T00:47:49Z</time>
      </trkpt>
      <trkpt lat="44.94065" lon="3.13853">
        <ele>954</ele>
        <time>2010-01-01T00:48:02Z</time>
      </trkpt>
      <trkpt lat="44.94084" lon="3.13784">
        <ele>957</ele>
        <time>2010-01-01T00:48:12Z</time>
      </trkpt>
      <trkpt lat="44.94086" lon="3.13739">
        <ele>956</ele>
        <time>2010-01-01T00:48:17Z</time>
      </trkpt>
      <trkpt lat="44.9408" lon="3.13694">
        <ele>955</ele>
        <time>2010-01-01T00:48:23Z</time>
      </trkpt>
      <trkpt lat="44.94071" lon="3.13673">
        <ele>953</ele>
        <time>2010-01-01T00:48:26Z</time>
      </trkpt>
      <trkpt lat="44.93975" lon="3.13477">
        <ele>941</ele>
        <time>2010-01-01T00:48:57Z</time>
      </trkpt>
      <trkpt lat="44.9394" lon="3.13443">
        <ele>938</ele>
        <time>2010-01-01T00:49:05Z</time>
      </trkpt>
      <trkpt lat="44.93912" lon="3.13432">
        <ele>938</ele>
        <time>2010-01-01T00:49:10Z</time>
      </trkpt>
      <trkpt lat="44.93831" lon="3.13432">
        <ele>928</ele>
        <time>2010-01-01T00:49:25Z</time>
      </trkpt>
      <trkpt lat="44.93799" lon="3.13421">
        <ele>925</ele>
        <time>2010-01-01T00:49:31Z</time>
      </trkpt>
      <trkpt lat="44.93771" lon="3.13396">
        <ele>921</ele>
        <time>2010-01-01T00:49:37Z</time>
      </trkpt>
      <trkpt lat="44.93687" lon="3.13286">
        <ele>910</ele>
        <time>2010-01-01T00:49:58Z</time>
      </trkpt>
      <trkpt lat="44.93659" lon="3.13256">
        <ele>909</ele>
        <time>2010-01-01T00:50:04Z</time>
      </trkpt>
      <trkpt lat="44.93526" lon="3.13168">
        <ele>902</ele>
        <time>2010-01-01T00:50:31Z</time>
      </trkpt>
      <trkpt lat="44.93509" lon="3.13158">
        <ele>900</ele>
        <time>2010-01-01T00:50:34Z</time>
      </trkpt>
      <trkpt lat="44.93479" lon="3.13151">
        <ele>898</ele>
        <time>2010-01-01T00:50:40Z</time>
      </trkpt>
      <trkpt lat="44.93449" lon="3.1316">
        <ele>898</ele>
        <time>2010-01-01T00:50:45Z</time>
      </trkpt>
      <trkpt lat="44.93327" lon="3.13265">
        <ele>889</ele>
        <time>2010-01-01T00:51:11Z</time>
      </trkpt>
      <trkpt lat="44.93292" lon="3.13284">
        <ele>886</ele>
        <time>2010-01-01T00:51:18Z</time>
      </trkpt>
      <trkpt lat="44.93258" lon="3.13295">
        <ele>886</ele>
        <time>2010-01-01T00:51:25Z</time>
      </trkpt>
      <trkpt lat="44.93239" lon="3.13297">
        <ele>885</ele>
        <time>2010-01-01T00:51:28Z</time>
      </trkpt>
      <trkpt lat="44.93204" lon="3.13291">
        <ele>880</ele>
        <time>2010-01-01T00:51:34Z</time>
      </trkpt>
      <trkpt lat="44.93189" lon="3.13278">
        <ele>876</ele>
        <time>2010-01-01T00:51:38Z</time>
      </trkpt>
      <trkpt lat="44.93172" lon="3.13243">
        <ele>878</ele>
        <time>2010-01-01T00:51:43Z</time>
      </trkpt>
      <trkpt lat="44.93172" lon="3.13196">
        <ele>888</ele>
        <time>2010-01-01T00:51:49Z</time>
      </trkpt>
      <trkpt lat="44.93219" lon="3.13061">
        <ele>885</ele>
        <time>2010-01-01T00:52:08Z</time>
      </trkpt>
      <trkpt lat="44.93224" lon="3.13018">
        <ele>883</ele>
        <time>2010-01-01T00:52:14Z</time>
      </trkpt>
      <trkpt lat="44.932" lon="3.12829">
        <ele>874</ele>
        <time>2010-01-01T00:52:39Z</time>
      </trkpt>
      <trkpt lat="44.93181" lon="3.12561">
        <ele>879</ele>
        <time>2010-01-01T00:53:13Z</time>
      </trkpt>
      <trkpt lat="44.93159" lon="3.12484">
        <ele>881</ele>
        <time>2010-01-01T00:53:24Z</time>
      </trkpt>
      <trkpt lat="44.93157" lon="3.12452">
        <ele>881</ele>
        <time>2010-01-01T00:53:28Z</time>
      </trkpt>
      <trkpt lat="44.93191" lon="3.12342">
        <ele>884</ele>
        <time>2010-01-01T00:53:44Z</time>
      </trkpt>
      <trkpt lat="44.93256" lon="3.12194">
        <ele>885</ele>
        <time>2010-01-01T00:54:06Z</time>
      </trkpt>
      <trkpt lat="44.93297" lon="3.12087">
        <ele>889</ele>
        <time>2010-01-01T00:54:22Z</time>
      </trkpt>
      <trkpt lat="44.93297" lon="3.12046">
        <ele>889</ele>
        <time>2010-01-01T00:54:27Z</time>
      </trkpt>
      <trkpt lat="44.93284" lon="3.12025">
        <ele>889</ele>
        <time>2010-01-01T00:54:31Z</time>
      </trkpt>
      <trkpt lat="44.9323" lon="3.11958">
        <ele>884</ele>
        <time>2010-01-01T00:54:44Z</time>
      </trkpt>
      <trkpt lat="44.93202" lon="3.11907">
        <ele>879</ele>
        <time>2010-01-01T00:54:52Z</time>
      </trkpt>
      <trkpt lat="44.93219" lon="3.11855">
        <ele>877</ele>
        <time>2010-01-01T00:54:59Z</time>
      </trkpt>
      <trkpt lat="44.93213" lon="3.11834">
        <ele>875</ele>
        <time>2010-01-01T00:55:02Z</time>
      </trkpt>
      <trkpt lat="44.93202" lon="3.1181">
        <ele>873</ele>
        <time>2010-01-01T00:55:06Z</time>
      </trkpt>
      <trkpt lat="44.93185" lon="3.11784">
        <ele>873</ele>
        <time>2010-01-01T00:55:11Z</time>
      </trkpt>
      <trkpt lat="44.93127" lon="3.11735">
        <ele>871</ele>
        <time>2010-01-01T00:55:23Z</time>
      </trkpt>
      <trkpt lat="44.93071" lon="3.11709">
        <ele>865</ele>
        <time>2010-01-01T00:55:33Z</time>
      </trkpt>
      <trkpt lat="44.93052" lon="3.11679">
        <ele>863</ele>
        <time>2010-01-01T00:55:39Z</time>
      </trkpt>
      <trkpt lat="44.93018" lon="3.11589">
        <ele>861</ele>
        <time>2010-01-01T00:55:52Z</time>
      </trkpt>
      <trkpt lat="44.92981" lon="3.11522">
        <ele>862</ele>
        <time>2010-01-01T00:56:03Z</time>
      </trkpt>
      <trkpt lat="44.92955" lon="3.11447">
        <ele>858</ele>
        <time>2010-01-01T00:56:13Z</time>
      </trkpt>
      <trkpt lat="44.92921" lon="3.11396">
        <ele>856</ele>
        <time>2010-01-01T00:56:23Z</time>
      </trkpt>
      <trkpt lat="44.92825" lon="3.11364">
        <ele>844</ele>
        <time>2010-01-01T00:56:41Z</time>
      </trkpt>
      <trkpt lat="44.92767" lon="3.11321">
        <ele>838</ele>
        <time>2010-01-01T00:56:53Z</time>
      </trkpt>
      <trkpt lat="44.92737" lon="3.1128">
        <ele>835</ele>
        <time>2010-01-01T00:57:00Z</time>
      </trkpt>
      <trkpt lat="44.92704" lon="3.11231">
        <ele>831</ele>
        <time>2010-01-01T00:57:09Z</time>
      </trkpt>
      <trkpt lat="44.92687" lon="3.1122">
        <ele>830</ele>
        <time>2010-01-01T00:57:12Z</time>
      </trkpt>
      <trkpt lat="44.92672" lon="3.11224">
        <ele>830</ele>
        <time>2010-01-01T00:57:15Z</time>
      </trkpt>
      <trkpt lat="44.92655" lon="3.11237">
        <ele>827</ele>
        <time>2010-01-01T00:57:19Z</time>
      </trkpt>
      <trkpt lat="44.92631" lon="3.11274">
        <ele>823</ele>
        <time>2010-01-01T00:57:25Z</time>
      </trkpt>
      <trkpt lat="44.92625" lon="3.11291">
        <ele>822</ele>
        <time>2010-01-01T00:57:27Z</time>
      </trkpt>
      <trkpt lat="44.92625" lon="3.11314">
        <ele>820</ele>
        <time>2010-01-01T00:57:30Z</time>
      </trkpt>
      <trkpt lat="44.92655" lon="3.11385">
        <ele>824</ele>
        <time>2010-01-01T00:57:41Z</time>
      </trkpt>
      <trkpt lat="44.92651" lon="3.11525">
        <ele>813</ele>
        <time>2010-01-01T00:57:59Z</time>
      </trkpt>
      <trkpt lat="44.92666" lon="3.11583">
        <ele>813</ele>
        <time>2010-01-01T00:58:07Z</time>
      </trkpt>
      <trkpt lat="44.92668" lon="3.11604">
        <ele>814</ele>
        <time>2010-01-01T00:58:10Z</time>
      </trkpt>
      <trkpt lat="44.92651" lon="3.11671">
        <ele>807</ele>
        <time>2010-01-01T00:58:19Z</time>
      </trkpt>
      <trkpt lat="44.92634" lon="3.11793">
        <ele>802</ele>
        <time>2010-01-01T00:58:35Z</time>
      </trkpt>
      <trkpt lat="44.92625" lon="3.11819">
        <ele>803</ele>
        <time>2010-01-01T00:58:39Z</time>
      </trkpt>
      <trkpt lat="44.92616" lon="3.11827">
        <ele>802</ele>
        <time>2010-01-01T00:58:41Z</time>
      </trkpt>
      <trkpt lat="44.92597" lon="3.11829">
        <ele>802</ele>
        <time>2010-01-01T00:58:44Z</time>
      </trkpt>
      <trkpt lat="44.92558" lon="3.11782">
        <ele>796</ele>
        <time>2010-01-01T00:58:53Z</time>
      </trkpt>
      <trkpt lat="44.92522" lon="3.11743">
        <ele>790</ele>
        <time>2010-01-01T00:59:02Z</time>
      </trkpt>
      <trkpt lat="44.92458" lon="3.1172">
        <ele>785</ele>
        <time>2010-01-01T00:59:14Z</time>
      </trkpt>
      <trkpt lat="44.9243" lon="3.11701">
        <ele>782</ele>
        <time>2010-01-01T00:59:19Z</time>
      </trkpt>
      <trkpt lat="44.92408" lon="3.11675">
        <ele>779</ele>
        <time>2010-01-01T00:59:25Z</time>
      </trkpt>
      <trkpt lat="44.92383" lon="3.11617">
        <ele>775</ele>
        <time>2010-01-01T00:59:33Z</time>
      </trkpt>
      <trkpt lat="44.92376" lon="3.116">
        <ele>773</ele>
        <time>2010-01-01T00:59:36Z</time>
      </trkpt>
      <trkpt lat="44.92346" lon="3.1155">
        <ele>763</ele>
        <time>2010-01-01T00:59:44Z</time>
      </trkpt>
      <trkpt lat="44.92331" lon="3.11546">
        <ele>759</ele>
        <time>2010-01-01T00:59:47Z</time>
      </trkpt>
      <trkpt lat="44.92318" lon="3.11553">
        <ele>754</ele>
        <time>2010-01-01T00:59:50Z</time>
      </trkpt>
      <trkpt lat="44.92314" lon="3.1157">
        <ele>754</ele>
        <time>2010-01-01T00:59:52Z</time>
      </trkpt>
      <trkpt lat="44.92297" lon="3.11761">
        <ele>752</ele>
        <time>2010-01-01T01:00:17Z</time>
      </trkpt>
      <trkpt lat="44.92288" lon="3.11791">
        <ele>753</ele>
        <time>2010-01-01T01:00:21Z</time>
      </trkpt>
      <trkpt lat="44.92245" lon="3.11877">
        <ele>752</ele>
        <time>2010-01-01T01:00:34Z</time>
      </trkpt>
      <trkpt lat="44.92213" lon="3.11919">
        <ele>749</ele>
        <time>2010-01-01T01:00:42Z</time>
      </trkpt>
      <trkpt lat="44.92185" lon="3.11973">
        <ele>757</ele>
        <time>2010-01-01T01:00:51Z</time>
      </trkpt>
      <trkpt lat="44.92177" lon="3.1198">
        <ele>757</ele>
        <time>2010-01-01T01:00:53Z</time>
      </trkpt>
      <trkpt lat="44.92127" lon="3.1198">
        <ele>745</ele>
        <time>2010-01-01T01:01:02Z</time>
      </trkpt>
      <trkpt lat="44.92108" lon="3.1199">
        <ele>745</ele>
        <time>2010-01-01T01:01:06Z</time>
      </trkpt>
      <trkpt lat="44.92089" lon="3.12012">
        <ele>746</ele>
        <time>2010-01-01T01:01:10Z</time>
      </trkpt>
      <trkpt lat="44.92074" lon="3.12098">
        <ele>756</ele>
        <time>2010-01-01T01:01:21Z</time>
      </trkpt>
      <trkpt lat="44.92059" lon="3.1213">
        <ele>756</ele>
        <time>2010-01-01T01:01:26Z</time>
      </trkpt>
      <trkpt lat="44.92041" lon="3.12132">
        <ele>760</ele>
        <time>2010-01-01T01:01:30Z</time>
      </trkpt>
      <trkpt lat="44.92037" lon="3.12128">
        <ele>760</ele>
        <time>2010-01-01T01:01:30Z</time>
      </trkpt>
      <trkpt lat="44.92005" lon="3.12059">
        <ele>754</ele>
        <time>2010-01-01T01:01:41Z</time>
      </trkpt>
      <trkpt lat="44.91981" lon="3.12042">
        <ele>752</ele>
        <time>2010-01-01T01:01:46Z</time>
      </trkpt>
      <trkpt lat="44.91908" lon="3.1202">
        <ele>757</ele>
        <time>2010-01-01T01:01:59Z</time>
      </trkpt>
      <trkpt lat="44.91853" lon="3.1199">
        <ele>755</ele>
        <time>2010-01-01T01:02:10Z</time>
      </trkpt>
      <trkpt lat="44.91831" lon="3.11988">
        <ele>753</ele>
        <time>2010-01-01T01:02:14Z</time>
      </trkpt>
      <trkpt lat="44.9181" lon="3.11999">
        <ele>749</ele>
        <time>2010-01-01T01:02:18Z</time>
      </trkpt>
      <trkpt lat="44.91782" lon="3.12042">
        <ele>755</ele>
        <time>2010-01-01T01:02:26Z</time>
      </trkpt>
      <trkpt lat="44.91677" lon="3.12177">
        <ele>754</ele>
        <time>2010-01-01T01:02:52Z</time>
      </trkpt>
      <trkpt lat="44.91657" lon="3.12215">
        <ele>754</ele>
        <time>2010-01-01T01:02:58Z</time>
      </trkpt>
      <trkpt lat="44.91623" lon="3.1228">
        <ele>749</ele>
        <time>2010-01-01T01:03:08Z</time>
      </trkpt>
      <trkpt lat="44.91604" lon="3.12286">
        <ele>743</ele>
        <time>2010-01-01T01:03:12Z</time>
      </trkpt>
      <trkpt lat="44.91599" lon="3.12282">
        <ele>741</ele>
        <time>2010-01-01T01:03:13Z</time>
      </trkpt>
      <trkpt lat="44.91595" lon="3.1228">
        <ele>740</ele>
        <time>2010-01-01T01:03:14Z</time>
      </trkpt>
      <trkpt lat="44.91477" lon="3.12166">
        <ele>735</ele>
        <time>2010-01-01T01:03:40Z</time>
      </trkpt>
      <trkpt lat="44.91404" lon="3.12098">
        <ele>741</ele>
        <time>2010-01-01T01:03:56Z</time>
      </trkpt>
      <trkpt lat="44.91395" lon="3.12089">
        <ele>745</ele>
        <time>2010-01-01T01:03:57Z</time>
      </trkpt>
      <trkpt lat="44.91338" lon="3.12022">
        <ele>755</ele>
        <time>2010-01-01T01:04:11Z</time>
      </trkpt>
      <trkpt lat="44.9125" lon="3.11962">
        <ele>758</ele>
        <time>2010-01-01T01:04:29Z</time>
      </trkpt>
      <trkpt lat="44.912" lon="3.11915">
        <ele>763</ele>
        <time>2010-01-01T01:04:40Z</time>
      </trkpt>
      <trkpt lat="44.91147" lon="3.1184">
        <ele>762</ele>
        <time>2010-01-01T01:04:53Z</time>
      </trkpt>
      <trkpt lat="44.91095" lon="3.11743">
        <ele>762</ele>
        <time>2010-01-01T01:05:09Z</time>
      </trkpt>
      <trkpt lat="44.91067" lon="3.11709">
        <ele>763</ele>
        <time>2010-01-01T01:05:16Z</time>
      </trkpt>
      <trkpt lat="44.91024" lon="3.11675">
        <ele>769</ele>
        <time>2010-01-01T01:05:25Z</time>
      </trkpt>
      <trkpt lat="44.90908" lon="3.11632">
        <ele>781</ele>
        <time>2010-01-01T01:05:47Z</time>
      </trkpt>
      <trkpt lat="44.90853" lon="3.11574">
        <ele>783</ele>
        <time>2010-01-01T01:05:59Z</time>
      </trkpt>
      <trkpt lat="44.90838" lon="3.1155">
        <ele>785</ele>
        <time>2010-01-01T01:06:03Z</time>
      </trkpt>
      <trkpt lat="44.90831" lon="3.11529">
        <ele>786</ele>
        <time>2010-01-01T01:06:06Z</time>
      </trkpt>
      <trkpt lat="44.90838" lon="3.1149">
        <ele>781</ele>
        <time>2010-01-01T01:06:11Z</time>
      </trkpt>
      <trkpt lat="44.90855" lon="3.11471">
        <ele>780</ele>
        <time>2010-01-01T01:06:15Z</time>
      </trkpt>
      <trkpt lat="44.90872" lon="3.11465">
        <ele>786</ele>
        <time>2010-01-01T01:06:19Z</time>
      </trkpt>
      <trkpt lat="44.90889" lon="3.11471">
        <ele>790</ele>
        <time>2010-01-01T01:06:22Z</time>
      </trkpt>
      <trkpt lat="44.90928" lon="3.11503">
        <ele>787</ele>
        <time>2010-01-01T01:06:30Z</time>
      </trkpt>
      <trkpt lat="44.90949" lon="3.11501">
        <ele>789</ele>
        <time>2010-01-01T01:06:34Z</time>
      </trkpt>
      <trkpt lat="44.91009" lon="3.11477">
        <ele>790</ele>
        <time>2010-01-01T01:06:45Z</time>
      </trkpt>
      <trkpt lat="44.91026" lon="3.114">
        <ele>806</ele>
        <time>2010-01-01T01:06:56Z</time>
      </trkpt>
      <trkpt lat="44.9105" lon="3.1134">
        <ele>802</ele>
        <time>2010-01-01T01:07:05Z</time>
      </trkpt>
      <trkpt lat="44.91056" lon="3.11274">
        <ele>812</ele>
        <time>2010-01-01T01:07:13Z</time>
      </trkpt>
      <trkpt lat="44.91078" lon="3.11224">
        <ele>819</ele>
        <time>2010-01-01T01:07:21Z</time>
      </trkpt>
      <trkpt lat="44.91144" lon="3.11166">
        <ele>817</ele>
        <time>2010-01-01T01:07:35Z</time>
      </trkpt>
      <trkpt lat="44.91172" lon="3.1113">
        <ele>828</ele>
        <time>2010-01-01T01:07:42Z</time>
      </trkpt>
      <trkpt lat="44.9122" lon="3.11115">
        <ele>821</ele>
        <time>2010-01-01T01:07:51Z</time>
      </trkpt>
      <trkpt lat="44.91275" lon="3.11063">
        <ele>830</ele>
        <time>2010-01-01T01:08:03Z</time>
      </trkpt>
      <trkpt lat="44.91297" lon="3.11057">
        <ele>829</ele>
        <time>2010-01-01T01:08:07Z</time>
      </trkpt>
      <trkpt lat="44.91331" lon="3.11048">
        <ele>826</ele>
        <time>2010-01-01T01:08:13Z</time>
      </trkpt>
      <trkpt lat="44.91335" lon="3.11038">
        <ele>826</ele>
        <time>2010-01-01T01:08:15Z</time>
      </trkpt>
      <trkpt lat="44.91333" lon="3.11025">
        <ele>827</ele>
        <time>2010-01-01T01:08:16Z</time>
      </trkpt>
      <trkpt lat="44.91325" lon="3.11016">
        <ele>829</ele>
        <time>2010-01-01T01:08:18Z</time>
      </trkpt>
      <trkpt lat="44.91267" lon="3.11007">
        <ele>836</ele>
        <time>2010-01-01T01:08:29Z</time>
      </trkpt>
      <trkpt lat="44.91224" lon="3.10986">
        <ele>844</ele>
        <time>2010-01-01T01:08:37Z</time>
      </trkpt>
      <trkpt lat="44.91179" lon="3.10935">
        <ele>852</ele>
        <time>2010-01-01T01:08:48Z</time>
      </trkpt>
      <trkpt lat="44.91123" lon="3.10902">
        <ele>858</ele>
        <time>2010-01-01T01:08:59Z</time>
      </trkpt>
      <trkpt lat="44.91112" lon="3.1087">
        <ele>866</ele>
        <time>2010-01-01T01:09:03Z</time>
      </trkpt>
      <trkpt lat="44.91119" lon="3.10844">
        <ele>867</ele>
        <time>2010-01-01T01:09:07Z</time>
      </trkpt>
      <trkpt lat="44.91166" lon="3.10795">
        <ele>866</ele>
        <time>2010-01-01T01:09:17Z</time>
      </trkpt>
      <trkpt lat="44.91179" lon="3.10767">
        <ele>869</ele>
        <time>2010-01-01T01:09:22Z</time>
      </trkpt>
      <trkpt lat="44.91189" lon="3.10596">
        <ele>884</ele>
        <time>2010-01-01T01:09:44Z</time>
      </trkpt>
      <trkpt lat="44.91241" lon="3.10488">
        <ele>887</ele>
        <time>2010-01-01T01:10:01Z</time>
      </trkpt>
      <trkpt lat="44.91254" lon="3.1045">
        <ele>889</ele>
        <time>2010-01-01T01:10:06Z</time>
      </trkpt>
      <trkpt lat="44.91256" lon="3.10413">
        <ele>892</ele>
        <time>2010-01-01T01:10:11Z</time>
      </trkpt>
      <trkpt lat="44.91245" lon="3.10377">
        <ele>894</ele>
        <time>2010-01-01T01:10:16Z</time>
      </trkpt>
      <trkpt lat="44.91235" lon="3.10357">
        <ele>894</ele>
        <time>2010-01-01T01:10:19Z</time>
      </trkpt>
      <trkpt lat="44.91209" lon="3.10336">
        <ele>895</ele>
        <time>2010-01-01T01:10:25Z</time>
      </trkpt>
      <trkpt lat="44.9114" lon="3.10317">
        <ele>900</ele>
        <time>2010-01-01T01:10:37Z</time>
      </trkpt>
      <trkpt lat="44.91065" lon="3.10287">
        <ele>903</ele>
        <time>2010-01-01T01:10:51Z</time>
      </trkpt>
      <trkpt lat="44.91029" lon="3.10287">
        <ele>903</ele>
        <time>2010-01-01T01:10:58Z</time>
      </trkpt>
      <trkpt lat="44.90904" lon="3.10329">
        <ele>903</ele>
        <time>2010-01-01T01:11:21Z</time>
      </trkpt>
      <trkpt lat="44.9087" lon="3.10334">
        <ele>901</ele>
        <time>2010-01-01T01:11:28Z</time>
      </trkpt>
      <trkpt lat="44.90827" lon="3.10314">
        <ele>904</ele>
        <time>2010-01-01T01:11:36Z</time>
      </trkpt>
      <trkpt lat="44.90803" lon="3.10282">
        <ele>906</ele>
        <time>2010-01-01T01:11:42Z</time>
      </trkpt>
      <trkpt lat="44.90754" lon="3.10162">
        <ele>907</ele>
        <time>2010-01-01T01:12:00Z</time>
      </trkpt>
      <trkpt lat="44.90735" lon="3.10119">
        <ele>910</ele>
        <time>2010-01-01T01:12:06Z</time>
      </trkpt>
      <trkpt lat="44.90717" lon="3.10093">
        <ele>909</ele>
        <time>2010-01-01T01:12:11Z</time>
      </trkpt>
      <trkpt lat="44.90681" lon="3.10063">
        <ele>909</ele>
        <time>2010-01-01T01:12:19Z</time>
      </trkpt>
      <trkpt lat="44.90599" lon="3.1002">
        <ele>914</ele>
        <time>2010-01-01T01:12:34Z</time>
      </trkpt>
      <trkpt lat="44.90567" lon="3.09988">
        <ele>913</ele>
        <time>2010-01-01T01:12:42Z</time>
      </trkpt>
      <trkpt lat="44.90539" lon="3.09932">
        <ele>913</ele>
        <time>2010-01-01T01:12:50Z</time>
      </trkpt>
      <trkpt lat="44.90533" lon="3.09875">
        <ele>917</ele>
        <time>2010-01-01T01:12:58Z</time>
      </trkpt>
      <trkpt lat="44.90544" lon="3.09814">
        <ele>922</ele>
        <time>2010-01-01T01:13:06Z</time>
      </trkpt>
      <trkpt lat="44.90569" lon="3.09735">
        <ele>924</ele>
        <time>2010-01-01T01:13:17Z</time>
      </trkpt>
      <trkpt lat="44.90571" lon="3.09662">
        <ele>928</ele>
        <time>2010-01-01T01:13:27Z</time>
      </trkpt>
      <trkpt lat="44.90563" lon="3.09572">
        <ele>930</ele>
        <time>2010-01-01T01:13:38Z</time>
      </trkpt>
      <trkpt lat="44.90552" lon="3.09516">
        <ele>930</ele>
        <time>2010-01-01T01:13:46Z</time>
      </trkpt>
      <trkpt lat="44.90537" lon="3.09486">
        <ele>930</ele>
        <time>2010-01-01T01:13:50Z</time>
      </trkpt>
      <trkpt lat="44.90451" lon="3.09396">
        <ele>931</ele>
        <time>2010-01-01T01:14:10Z</time>
      </trkpt>
      <trkpt lat="44.90432" lon="3.09362">
        <ele>930</ele>
        <time>2010-01-01T01:14:16Z</time>
      </trkpt>
      <trkpt lat="44.90417" lon="3.09321">
        <ele>929</ele>
        <time>2010-01-01T01:14:22Z</time>
      </trkpt>
      <trkpt lat="44.90387" lon="3.09186">
        <ele>930</ele>
        <time>2010-01-01T01:14:40Z</time>
      </trkpt>
      <trkpt lat="44.90372" lon="3.09149">
        <ele>930</ele>
        <time>2010-01-01T01:14:45Z</time>
      </trkpt>
      <trkpt lat="44.9035" lon="3.09121">
        <ele>930</ele>
        <time>2010-01-01T01:14:51Z</time>
      </trkpt>
      <trkpt lat="44.90282" lon="3.09057">
        <ele>929</ele>
        <time>2010-01-01T01:15:06Z</time>
      </trkpt>
      <trkpt lat="44.9023" lon="3.08988">
        <ele>928</ele>
        <time>2010-01-01T01:15:18Z</time>
      </trkpt>
      <trkpt lat="44.90224" lon="3.08941">
        <ele>926</ele>
        <time>2010-01-01T01:15:25Z</time>
      </trkpt>
      <trkpt lat="44.90207" lon="3.08868">
        <ele>923</ele>
        <time>2010-01-01T01:15:35Z</time>
      </trkpt>
      <trkpt lat="44.902" lon="3.08849">
        <ele>923</ele>
        <time>2010-01-01T01:15:37Z</time>
      </trkpt>
      <trkpt lat="44.90183" lon="3.08797">
        <ele>920</ele>
        <time>2010-01-01T01:15:45Z</time>
      </trkpt>
      <trkpt lat="44.90172" lon="3.08769">
        <ele>918</ele>
        <time>2010-01-01T01:15:49Z</time>
      </trkpt>
      <trkpt lat="44.9016" lon="3.08718">
        <ele>916</ele>
        <time>2010-01-01T01:15:56Z</time>
      </trkpt>
      <trkpt lat="44.90157" lon="3.08664">
        <ele>918</ele>
        <time>2010-01-01T01:16:03Z</time>
      </trkpt>
      <trkpt lat="44.90153" lon="3.08656">
        <ele>918</ele>
        <time>2010-01-01T01:16:04Z</time>
      </trkpt>
      <trkpt lat="44.90181" lon="3.08615">
        <ele>915</ele>
        <time>2010-01-01T01:16:11Z</time>
      </trkpt>
      <trkpt lat="44.9022" lon="3.08602">
        <ele>912</ele>
        <time>2010-01-01T01:16:19Z</time>
      </trkpt>
      <trkpt lat="44.9023" lon="3.08594">
        <ele>911</ele>
        <time>2010-01-01T01:16:21Z</time>
      </trkpt>
      <trkpt lat="44.90243" lon="3.08583">
        <ele>909</ele>
        <time>2010-01-01T01:16:23Z</time>
      </trkpt>
      <trkpt lat="44.9029" lon="3.08536">
        <ele>908</ele>
        <time>2010-01-01T01:16:34Z</time>
      </trkpt>
      <trkpt lat="44.90374" lon="3.08478">
        <ele>907</ele>
        <time>2010-01-01T01:16:51Z</time>
      </trkpt>
      <trkpt lat="44.90411" lon="3.08445">
        <ele>906</ele>
        <time>2010-01-01T01:16:59Z</time>
      </trkpt>
      <trkpt lat="44.90503" lon="3.08394">
        <ele>904</ele>
        <time>2010-01-01T01:17:17Z</time>
      </trkpt>
      <trkpt lat="44.90617" lon="3.08274">
        <ele>899</ele>
        <time>2010-01-01T01:17:43Z</time>
      </trkpt>
      <trkpt lat="44.90756" lon="3.08134">
        <ele>887</ele>
        <time>2010-01-01T01:18:14Z</time>
      </trkpt>
      <trkpt lat="44.90872" lon="3.07965">
        <ele>886</ele>
        <time>2010-01-01T01:18:44Z</time>
      </trkpt>
      <trkpt lat="44.90891" lon="3.07924">
        <ele>885</ele>
        <time>2010-01-01T01:18:50Z</time>
      </trkpt>
      <trkpt lat="44.90893" lon="3.07888">
        <ele>887</ele>
        <time>2010-01-01T01:18:55Z</time>
      </trkpt>
      <trkpt lat="44.90857" lon="3.0778">
        <ele>883</ele>
        <time>2010-01-01T01:19:11Z</time>
      </trkpt>
      <trkpt lat="44.90846" lon="3.0769">
        <ele>886</ele>
        <time>2010-01-01T01:19:22Z</time>
      </trkpt>
      <trkpt lat="44.90825" lon="3.0763">
        <ele>877</ele>
        <time>2010-01-01T01:19:31Z</time>
      </trkpt>
      <trkpt lat="44.90823" lon="3.07589">
        <ele>875</ele>
        <time>2010-01-01T01:19:36Z</time>
      </trkpt>
      <trkpt lat="44.90835" lon="3.07521">
        <ele>876</ele>
        <time>2010-01-01T01:19:45Z</time>
      </trkpt>
      <trkpt lat="44.90861" lon="3.07443">
        <ele>879</ele>
        <time>2010-01-01T01:19:56Z</time>
      </trkpt>
      <trkpt lat="44.90865" lon="3.07409">
        <ele>880</ele>
        <time>2010-01-01T01:20:01Z</time>
      </trkpt>
      <trkpt lat="44.90853" lon="3.07368">
        <ele>875</ele>
        <time>2010-01-01T01:20:07Z</time>
      </trkpt>
      <trkpt lat="44.9081" lon="3.07343">
        <ele>866</ele>
        <time>2010-01-01T01:20:15Z</time>
      </trkpt>
      <trkpt lat="44.90795" lon="3.07319">
        <ele>866</ele>
        <time>2010-01-01T01:20:19Z</time>
      </trkpt>
      <trkpt lat="44.90762" lon="3.07164">
        <ele>859</ele>
        <time>2010-01-01T01:20:40Z</time>
      </trkpt>
      <trkpt lat="44.90737" lon="3.07083">
        <ele>856</ele>
        <time>2010-01-01T01:20:51Z</time>
      </trkpt>
      <trkpt lat="44.90713" lon="3.06969">
        <ele>852</ele>
        <time>2010-01-01T01:21:07Z</time>
      </trkpt>
      <trkpt lat="44.90715" lon="3.06939">
        <ele>851</ele>
        <time>2010-01-01T01:21:11Z</time>
      </trkpt>
      <trkpt lat="44.90735" lon="3.06909">
        <ele>851</ele>
        <time>2010-01-01T01:21:16Z</time>
      </trkpt>
      <trkpt lat="44.90754" lon="3.06896">
        <ele>850</ele>
        <time>2010-01-01T01:21:20Z</time>
      </trkpt>
      <trkpt lat="44.90773" lon="3.06901">
        <ele>848</ele>
        <time>2010-01-01T01:21:23Z</time>
      </trkpt>
      <trkpt lat="44.9085" lon="3.06963">
        <ele>848</ele>
        <time>2010-01-01T01:21:40Z</time>
      </trkpt>
      <trkpt lat="44.90938" lon="3.07025">
        <ele>845</ele>
        <time>2010-01-01T01:21:57Z</time>
      </trkpt>
      <trkpt lat="44.90968" lon="3.07029">
        <ele>842</ele>
        <time>2010-01-01T01:22:03Z</time>
      </trkpt>
      <trkpt lat="44.90999" lon="3.07025">
        <ele>837</ele>
        <time>2010-01-01T01:22:08Z</time>
      </trkpt>
      <trkpt lat="44.91074" lon="3.07001">
        <ele>828</ele>
        <time>2010-01-01T01:22:22Z</time>
      </trkpt>
      <trkpt lat="44.91157" lon="3.06965">
        <ele>821</ele>
        <time>2010-01-01T01:22:38Z</time>
      </trkpt>
      <trkpt lat="44.91254" lon="3.06946">
        <ele>809</ele>
        <time>2010-01-01T01:22:56Z</time>
      </trkpt>
      <trkpt lat="44.91288" lon="3.06941">
        <ele>804</ele>
        <time>2010-01-01T01:23:02Z</time>
      </trkpt>
      <trkpt lat="44.91359" lon="3.06952">
        <ele>807</ele>
        <time>2010-01-01T01:23:15Z</time>
      </trkpt>
      <trkpt lat="44.91406" lon="3.06948">
        <ele>802</ele>
        <time>2010-01-01T01:23:24Z</time>
      </trkpt>
      <trkpt lat="44.91443" lon="3.06956">
        <ele>804</ele>
        <time>2010-01-01T01:23:31Z</time>
      </trkpt>
      <trkpt lat="44.91458" lon="3.06952">
        <ele>805</ele>
        <time>2010-01-01T01:23:33Z</time>
      </trkpt>
      <trkpt lat="44.91471" lon="3.06931">
        <ele>800</ele>
        <time>2010-01-01T01:23:37Z</time>
      </trkpt>
      <trkpt lat="44.91492" lon="3.06879">
        <ele>790</ele>
        <time>2010-01-01T01:23:45Z</time>
      </trkpt>
      <trkpt lat="44.91509" lon="3.06858">
        <ele>789</ele>
        <time>2010-01-01T01:23:49Z</time>
      </trkpt>
      <trkpt lat="44.91531" lon="3.06845">
        <ele>790</ele>
        <time>2010-01-01T01:23:53Z</time>
      </trkpt>
      <trkpt lat="44.91541" lon="3.06849">
        <ele>790</ele>
        <time>2010-01-01T01:23:55Z</time>
      </trkpt>
      <trkpt lat="44.91554" lon="3.06862">
        <ele>792</ele>
        <time>2010-01-01T01:23:58Z</time>
      </trkpt>
      <trkpt lat="44.91593" lon="3.06937">
        <ele>793</ele>
        <time>2010-01-01T01:24:10Z</time>
      </trkpt>
      <trkpt lat="44.91638" lon="3.07055">
        <ele>792</ele>
        <time>2010-01-01T01:24:27Z</time>
      </trkpt>
      <trkpt lat="44.91681" lon="3.07117">
        <ele>791</ele>
        <time>2010-01-01T01:24:38Z</time>
      </trkpt>
      <trkpt lat="44.91747" lon="3.0713">
        <ele>782</ele>
        <time>2010-01-01T01:24:51Z</time>
      </trkpt>
      <trkpt lat="44.91932" lon="3.07182">
        <ele>763</ele>
        <time>2010-01-01T01:25:25Z</time>
      </trkpt>
      <trkpt lat="44.9202" lon="3.07229">
        <ele>751</ele>
        <time>2010-01-01T01:25:42Z</time>
      </trkpt>
      <trkpt lat="44.92033" lon="3.07237">
        <ele>749</ele>
        <time>2010-01-01T01:25:45Z</time>
      </trkpt>
      <trkpt lat="44.92056" lon="3.07259">
        <ele>744</ele>
        <time>2010-01-01T01:25:50Z</time>
      </trkpt>
      <trkpt lat="44.92069" lon="3.07276">
        <ele>746</ele>
        <time>2010-01-01T01:25:53Z</time>
      </trkpt>
      <trkpt lat="44.92078" lon="3.073">
        <ele>749</ele>
        <time>2010-01-01T01:25:56Z</time>
      </trkpt>
      <trkpt lat="44.92078" lon="3.07325">
        <ele>751</ele>
        <time>2010-01-01T01:26:00Z</time>
      </trkpt>
      <trkpt lat="44.92071" lon="3.07364">
        <ele>753</ele>
        <time>2010-01-01T01:26:05Z</time>
      </trkpt>
      <trkpt lat="44.92076" lon="3.07383">
        <ele>749</ele>
        <time>2010-01-01T01:26:07Z</time>
      </trkpt>
      <trkpt lat="44.92185" lon="3.07439">
        <ele>727</ele>
        <time>2010-01-01T01:26:29Z</time>
      </trkpt>
      <trkpt lat="44.92217" lon="3.07452">
        <ele>725</ele>
        <time>2010-01-01T01:26:35Z</time>
      </trkpt>
      <trkpt lat="44.92241" lon="3.07463">
        <ele>724</ele>
        <time>2010-01-01T01:26:39Z</time>
      </trkpt>
      <trkpt lat="44.92348" lon="3.07518">
        <ele>738</ele>
        <time>2010-01-01T01:27:00Z</time>
      </trkpt>
      <trkpt lat="44.92363" lon="3.07525">
        <ele>739</ele>
        <time>2010-01-01T01:27:03Z</time>
      </trkpt>
      <trkpt lat="44.92391" lon="3.07546">
        <ele>744</ele>
        <time>2010-01-01T01:27:09Z</time>
      </trkpt>
      <trkpt lat="44.92444" lon="3.07606">
        <ele>759</ele>
        <time>2010-01-01T01:27:21Z</time>
      </trkpt>
      <trkpt lat="44.92453" lon="3.07617">
        <ele>761</ele>
        <time>2010-01-01T01:27:23Z</time>
      </trkpt>
      <trkpt lat="44.92455" lon="3.07632">
        <ele>761</ele>
        <time>2010-01-01T01:27:25Z</time>
      </trkpt>
      <trkpt lat="44.92449" lon="3.07649">
        <ele>759</ele>
        <time>2010-01-01T01:27:28Z</time>
      </trkpt>
      <trkpt lat="44.92406" lon="3.07662">
        <ele>755</ele>
        <time>2010-01-01T01:27:36Z</time>
      </trkpt>
      <trkpt lat="44.92393" lon="3.07684">
        <ele>755</ele>
        <time>2010-01-01T01:27:39Z</time>
      </trkpt>
      <trkpt lat="44.92391" lon="3.07699">
        <ele>756</ele>
        <time>2010-01-01T01:27:41Z</time>
      </trkpt>
      <trkpt lat="44.92391" lon="3.07724">
        <ele>758</ele>
        <time>2010-01-01T01:27:45Z</time>
      </trkpt>
      <trkpt lat="44.92398" lon="3.07748">
        <ele>757</ele>
        <time>2010-01-01T01:27:48Z</time>
      </trkpt>
      <trkpt lat="44.92413" lon="3.07776">
        <ele>759</ele>
        <time>2010-01-01T01:27:52Z</time>
      </trkpt>
      <trkpt lat="44.92438" lon="3.07793">
        <ele>762</ele>
        <time>2010-01-01T01:27:58Z</time>
      </trkpt>
      <trkpt lat="44.92464" lon="3.07806">
        <ele>766</ele>
        <time>2010-01-01T01:28:02Z</time>
      </trkpt>
      <trkpt lat="44.92509" lon="3.07821">
        <ele>773</ele>
        <time>2010-01-01T01:28:11Z</time>
      </trkpt>
      <trkpt lat="44.92533" lon="3.07817">
        <ele>775</ele>
        <time>2010-01-01T01:28:15Z</time>
      </trkpt>
      <trkpt lat="44.92584" lon="3.07785">
        <ele>780</ele>
        <time>2010-01-01T01:28:25Z</time>
      </trkpt>
      <trkpt lat="44.92599" lon="3.07776">
        <ele>782</ele>
        <time>2010-01-01T01:28:28Z</time>
      </trkpt>
      <trkpt lat="44.92612" lon="3.07778">
        <ele>785</ele>
        <time>2010-01-01T01:28:31Z</time>
      </trkpt>
      <trkpt lat="44.92619" lon="3.07791">
        <ele>788</ele>
        <time>2010-01-01T01:28:33Z</time>
      </trkpt>
      <trkpt lat="44.92619" lon="3.0781">
        <ele>791</ele>
        <time>2010-01-01T01:28:35Z</time>
      </trkpt>
      <trkpt lat="44.9258" lon="3.0795">
        <ele>799</ele>
        <time>2010-01-01T01:28:55Z</time>
      </trkpt>
      <trkpt lat="44.92539" lon="3.08038">
        <ele>801</ele>
        <time>2010-01-01T01:29:08Z</time>
      </trkpt>
      <trkpt lat="44.92526" lon="3.08089">
        <ele>802</ele>
        <time>2010-01-01T01:29:15Z</time>
      </trkpt>
      <trkpt lat="44.92528" lon="3.08113">
        <ele>801</ele>
        <time>2010-01-01T01:29:18Z</time>
      </trkpt>
      <trkpt lat="44.92537" lon="3.08124">
        <ele>801</ele>
        <time>2010-01-01T01:29:20Z</time>
      </trkpt>
      <trkpt lat="44.92552" lon="3.08117">
        <ele>803</ele>
        <time>2010-01-01T01:29:23Z</time>
      </trkpt>
      <trkpt lat="44.92567" lon="3.08061">
        <ele>808</ele>
        <time>2010-01-01T01:29:31Z</time>
      </trkpt>
      <trkpt lat="44.92599" lon="3.08018">
        <ele>812</ele>
        <time>2010-01-01T01:29:39Z</time>
      </trkpt>
      <trkpt lat="44.92649" lon="3.07956">
        <ele>815</ele>
        <time>2010-01-01T01:29:51Z</time>
      </trkpt>
      <trkpt lat="44.92711" lon="3.0789">
        <ele>821</ele>
        <time>2010-01-01T01:30:05Z</time>
      </trkpt>
      <trkpt lat="44.92782" lon="3.0784">
        <ele>830</ele>
        <time>2010-01-01T01:30:20Z</time>
      </trkpt>
      <trkpt lat="44.92825" lon="3.07802">
        <ele>831</ele>
        <time>2010-01-01T01:30:29Z</time>
      </trkpt>
      <trkpt lat="44.92852" lon="3.07791">
        <ele>836</ele>
        <time>2010-01-01T01:30:34Z</time>
      </trkpt>
      <trkpt lat="44.9293" lon="3.0778">
        <ele>850</ele>
        <time>2010-01-01T01:30:48Z</time>
      </trkpt>
      <trkpt lat="44.92945" lon="3.07772">
        <ele>853</ele>
        <time>2010-01-01T01:30:51Z</time>
      </trkpt>
      <trkpt lat="44.92953" lon="3.07752">
        <ele>852</ele>
        <time>2010-01-01T01:30:54Z</time>
      </trkpt>
      <trkpt lat="44.9296" lon="3.07707">
        <ele>851</ele>
        <time>2010-01-01T01:31:00Z</time>
      </trkpt>
      <trkpt lat="44.92968" lon="3.07688">
        <ele>851</ele>
        <time>2010-01-01T01:31:03Z</time>
      </trkpt>
      <trkpt lat="44.92996" lon="3.07658">
        <ele>854</ele>
        <time>2010-01-01T01:31:09Z</time>
      </trkpt>
      <trkpt lat="44.93024" lon="3.07649">
        <ele>855</ele>
        <time>2010-01-01T01:31:15Z</time>
      </trkpt>
      <trkpt lat="44.93035" lon="3.07656">
        <ele>857</ele>
        <time>2010-01-01T01:31:17Z</time>
      </trkpt>
      <trkpt lat="44.93082" lon="3.07697">
        <ele>864</ele>
        <time>2010-01-01T01:31:27Z</time>
      </trkpt>
      <trkpt lat="44.93104" lon="3.07707">
        <ele>867</ele>
        <time>2010-01-01T01:31:31Z</time>
      </trkpt>
      <trkpt lat="44.93196" lon="3.07701">
        <ele>869</ele>
        <time>2010-01-01T01:31:48Z</time>
      </trkpt>
      <trkpt lat="44.93226" lon="3.07716">
        <ele>875</ele>
        <time>2010-01-01T01:31:53Z</time>
      </trkpt>
      <trkpt lat="44.93243" lon="3.07718">
        <ele>877</ele>
        <time>2010-01-01T01:31:57Z</time>
      </trkpt>
      <trkpt lat="44.93256" lon="3.07697">
        <ele>876</ele>
        <time>2010-01-01T01:32:00Z</time>
      </trkpt>
      <trkpt lat="44.93254" lon="3.07628">
        <ele>872</ele>
        <time>2010-01-01T01:32:09Z</time>
      </trkpt>
      <trkpt lat="44.9326" lon="3.076">
        <ele>874</ele>
        <time>2010-01-01T01:32:13Z</time>
      </trkpt>
      <trkpt lat="44.93277" lon="3.07572">
        <ele>878</ele>
        <time>2010-01-01T01:32:18Z</time>
      </trkpt>
      <trkpt lat="44.93303" lon="3.07549">
        <ele>882</ele>
        <time>2010-01-01T01:32:23Z</time>
      </trkpt>
      <trkpt lat="44.93333" lon="3.07529">
        <ele>883</ele>
        <time>2010-01-01T01:32:29Z</time>
      </trkpt>
      <trkpt lat="44.93365" lon="3.07521">
        <ele>883</ele>
        <time>2010-01-01T01:32:35Z</time>
      </trkpt>
      <trkpt lat="44.93434" lon="3.07538">
        <ele>891</ele>
        <time>2010-01-01T01:32:48Z</time>
      </trkpt>
      <trkpt lat="44.93481" lon="3.0751">
        <ele>897</ele>
        <time>2010-01-01T01:32:57Z</time>
      </trkpt>
      <trkpt lat="44.93548" lon="3.07486">
        <ele>901</ele>
        <time>2010-01-01T01:33:10Z</time>
      </trkpt>
      <trkpt lat="44.93595" lon="3.07467">
        <ele>905</ele>
        <time>2010-01-01T01:33:19Z</time>
      </trkpt>
      <trkpt lat="44.93649" lon="3.07461">
        <ele>907</ele>
        <time>2010-01-01T01:33:28Z</time>
      </trkpt>
      <trkpt lat="44.93698" lon="3.07469">
        <ele>906</ele>
        <time>2010-01-01T01:33:37Z</time>
      </trkpt>
      <trkpt lat="44.93807" lon="3.07518">
        <ele>913</ele>
        <time>2010-01-01T01:33:58Z</time>
      </trkpt>
      <trkpt lat="44.93863" lon="3.07521">
        <ele>918</ele>
        <time>2010-01-01T01:34:08Z</time>
      </trkpt>
      <trkpt lat="44.93906" lon="3.07529">
        <ele>919</ele>
        <time>2010-01-01T01:34:16Z</time>
      </trkpt>
      <trkpt lat="44.9393" lon="3.07525">
        <ele>918</ele>
        <time>2010-01-01T01:34:21Z</time>
      </trkpt>
      <trkpt lat="44.9399" lon="3.07396">
        <ele>917</ele>
        <time>2010-01-01T01:34:41Z</time>
      </trkpt>
      <trkpt lat="44.94015" lon="3.07306">
        <ele>917</ele>
        <time>2010-01-01T01:34:53Z</time>
      </trkpt>
      <trkpt lat="44.94043" lon="3.07263">
        <ele>917</ele>
        <time>2010-01-01T01:35:01Z</time>
      </trkpt>
      <trkpt lat="44.94061" lon="3.0725">
        <ele>917</ele>
        <time>2010-01-01T01:35:04Z</time>
      </trkpt>
      <trkpt lat="44.94112" lon="3.07242">
        <ele>916</ele>
        <time>2010-01-01T01:35:14Z</time>
      </trkpt>
      <trkpt lat="44.94133" lon="3.07231">
        <ele>916</ele>
        <time>2010-01-01T01:35:18Z</time>
      </trkpt>
      <trkpt lat="44.94187" lon="3.07179">
        <ele>920</ele>
        <time>2010-01-01T01:35:29Z</time>
      </trkpt>
      <trkpt lat="44.94282" lon="3.07149">
        <ele>927</ele>
        <time>2010-01-01T01:35:47Z</time>
      </trkpt>
      <trkpt lat="44.94329" lon="3.07132">
        <ele>929</ele>
        <time>2010-01-01T01:35:56Z</time>
      </trkpt>
      <trkpt lat="44.94354" lon="3.07117">
        <ele>930</ele>
        <time>2010-01-01T01:36:01Z</time>
      </trkpt>
      <trkpt lat="44.94378" lon="3.07089">
        <ele>929</ele>
        <time>2010-01-01T01:36:07Z</time>
      </trkpt>
      <trkpt lat="44.94419" lon="3.07016">
        <ele>928</ele>
        <time>2010-01-01T01:36:19Z</time>
      </trkpt>
      <trkpt lat="44.94427" lon="3.07046">
        <ele>928</ele>
        <time>2010-01-01T01:36:23Z</time>
      </trkpt>
      <trkpt lat="44.94421" lon="3.07102">
        <ele>927</ele>
        <time>2010-01-01T01:36:30Z</time>
      </trkpt>
      <trkpt lat="44.94376" lon="3.0724">
        <ele>925</ele>
        <time>2010-01-01T01:36:50Z</time>
      </trkpt>
      <trkpt lat="44.94337" lon="3.07323">
        <ele>926</ele>
        <time>2010-01-01T01:37:02Z</time>
      </trkpt>
      <trkpt lat="44.94247" lon="3.07482">
        <ele>926</ele>
        <time>2010-01-01T01:37:29Z</time>
      </trkpt>
      <trkpt lat="44.94236" lon="3.07523">
        <ele>929</ele>
        <time>2010-01-01T01:37:34Z</time>
      </trkpt>
      <trkpt lat="44.94234" lon="3.07574">
        <ele>932</ele>
        <time>2010-01-01T01:37:41Z</time>
      </trkpt>
      <trkpt lat="44.94241" lon="3.07776">
        <ele>932</ele>
        <time>2010-01-01T01:38:07Z</time>
      </trkpt>
      <trkpt lat="44.94256" lon="3.07939">
        <ele>933</ele>
        <time>2010-01-01T01:38:28Z</time>
      </trkpt>
      <trkpt lat="44.94275" lon="3.07999">
        <ele>935</ele>
        <time>2010-01-01T01:38:37Z</time>
      </trkpt>
      <trkpt lat="44.94282" lon="3.08044">
        <ele>935</ele>
        <time>2010-01-01T01:38:42Z</time>
      </trkpt>
      <trkpt lat="44.94286" lon="3.08128">
        <ele>931</ele>
        <time>2010-01-01T01:38:53Z</time>
      </trkpt>
      <trkpt lat="44.94277" lon="3.08186">
        <ele>928</ele>
        <time>2010-01-01T01:39:01Z</time>
      </trkpt>
      <trkpt lat="44.94249" lon="3.08263">
        <ele>924</ele>
        <time>2010-01-01T01:39:12Z</time>
      </trkpt>
      <trkpt lat="44.94232" lon="3.08349">
        <ele>922</ele>
        <time>2010-01-01T01:39:24Z</time>
      </trkpt>
      <trkpt lat="44.94224" lon="3.08405">
        <ele>922</ele>
        <time>2010-01-01T01:39:31Z</time>
      </trkpt>
      <trkpt lat="44.94224" lon="3.08443">
        <ele>921</ele>
        <time>2010-01-01T01:39:36Z</time>
      </trkpt>
      <trkpt lat="44.94239" lon="3.08482">
        <ele>920</ele>
        <time>2010-01-01T01:39:42Z</time>
      </trkpt>
      <trkpt lat="44.9426" lon="3.08501">
        <ele>918</ele>
        <time>2010-01-01T01:39:46Z</time>
      </trkpt>
      <trkpt lat="44.94284" lon="3.08514">
        <ele>915</ele>
        <time>2010-01-01T01:39:51Z</time>
      </trkpt>
      <trkpt lat="44.94374" lon="3.08518">
        <ele>912</ele>
        <time>2010-01-01T01:40:07Z</time>
      </trkpt>
      <trkpt lat="44.94402" lon="3.08531">
        <ele>910</ele>
        <time>2010-01-01T01:40:13Z</time>
      </trkpt>
      <trkpt lat="44.94425" lon="3.08555">
        <ele>906</ele>
        <time>2010-01-01T01:40:18Z</time>
      </trkpt>
      <trkpt lat="44.94466" lon="3.08617">
        <ele>901</ele>
        <time>2010-01-01T01:40:29Z</time>
      </trkpt>
      <trkpt lat="44.94518" lon="3.08686">
        <ele>895</ele>
        <time>2010-01-01T01:40:42Z</time>
      </trkpt>
      <trkpt lat="44.94601" lon="3.08769">
        <ele>895</ele>
        <time>2010-01-01T01:41:00Z</time>
      </trkpt>
      <trkpt lat="44.94629" lon="3.08797">
        <ele>893</ele>
        <time>2010-01-01T01:41:06Z</time>
      </trkpt>
      <trkpt lat="44.94661" lon="3.08819">
        <ele>893</ele>
        <time>2010-01-01T01:41:13Z</time>
      </trkpt>
      <trkpt lat="44.9473" lon="3.08845">
        <ele>894</ele>
        <time>2010-01-01T01:41:26Z</time>
      </trkpt>
      <trkpt lat="44.94844" lon="3.08926">
        <ele>892</ele>
        <time>2010-01-01T01:41:49Z</time>
      </trkpt>
      <trkpt lat="44.94938" lon="3.08971">
        <ele>885</ele>
        <time>2010-01-01T01:42:07Z</time>
      </trkpt>
      <trkpt lat="44.95" lon="3.09014">
        <ele>878</ele>
        <time>2010-01-01T01:42:20Z</time>
      </trkpt>
      <trkpt lat="44.95043" lon="3.09036">
        <ele>878</ele>
        <time>2010-01-01T01:42:28Z</time>
      </trkpt>
      <trkpt lat="44.95054" lon="3.09061">
        <ele>877</ele>
        <time>2010-01-01T01:42:32Z</time>
      </trkpt>
      <trkpt lat="44.95048" lon="3.09136">
        <ele>868</ele>
        <time>2010-01-01T01:42:42Z</time>
      </trkpt>
      <trkpt lat="44.9505" lon="3.09156">
        <ele>866</ele>
        <time>2010-01-01T01:42:44Z</time>
      </trkpt>
      <trkpt lat="44.9508" lon="3.09216">
        <ele>862</ele>
        <time>2010-01-01T01:42:54Z</time>
      </trkpt>
      <trkpt lat="44.9511" lon="3.09265">
        <ele>858</ele>
        <time>2010-01-01T01:43:02Z</time>
      </trkpt>
      <trkpt lat="44.95133" lon="3.09327">
        <ele>850</ele>
        <time>2010-01-01T01:43:11Z</time>
      </trkpt>
      <trkpt lat="44.95146" lon="3.09355">
        <ele>849</ele>
        <time>2010-01-01T01:43:15Z</time>
      </trkpt>
      <trkpt lat="44.95168" lon="3.09433">
        <ele>847</ele>
        <time>2010-01-01T01:43:26Z</time>
      </trkpt>
      <trkpt lat="44.95236" lon="3.0954">
        <ele>832</ele>
        <time>2010-01-01T01:43:45Z</time>
      </trkpt>
      <trkpt lat="44.95262" lon="3.0954">
        <ele>831</ele>
        <time>2010-01-01T01:43:49Z</time>
      </trkpt>
      <trkpt lat="44.95309" lon="3.09508">
        <ele>830</ele>
        <time>2010-01-01T01:43:59Z</time>
      </trkpt>
      <trkpt lat="44.95352" lon="3.09486">
        <ele>822</ele>
        <time>2010-01-01T01:44:07Z</time>
      </trkpt>
      <trkpt lat="44.9538" lon="3.0946">
        <ele>815</ele>
        <time>2010-01-01T01:44:13Z</time>
      </trkpt>
      <trkpt lat="44.95387" lon="3.09439">
        <ele>815</ele>
        <time>2010-01-01T01:44:16Z</time>
      </trkpt>
      <trkpt lat="44.95382" lon="3.09377">
        <ele>820</ele>
        <time>2010-01-01T01:44:24Z</time>
      </trkpt>
      <trkpt lat="44.95387" lon="3.09338">
        <ele>820</ele>
        <time>2010-01-01T01:44:29Z</time>
      </trkpt>
      <trkpt lat="44.95408" lon="3.09265">
        <ele>807</ele>
        <time>2010-01-01T01:44:40Z</time>
      </trkpt>
      <trkpt lat="44.95421" lon="3.09207">
        <ele>793</ele>
        <time>2010-01-01T01:44:47Z</time>
      </trkpt>
      <trkpt lat="44.95402" lon="3.0913">
        <ele>793</ele>
        <time>2010-01-01T01:44:58Z</time>
      </trkpt>
      <trkpt lat="44.95397" lon="3.09055">
        <ele>785</ele>
        <time>2010-01-01T01:45:08Z</time>
      </trkpt>
      <trkpt lat="44.9538" lon="3.08975">
        <ele>785</ele>
        <time>2010-01-01T01:45:18Z</time>
      </trkpt>
      <trkpt lat="44.95374" lon="3.08933">
        <ele>784</ele>
        <time>2010-01-01T01:45:24Z</time>
      </trkpt>
      <trkpt lat="44.95393" lon="3.0887">
        <ele>771</ele>
        <time>2010-01-01T01:45:33Z</time>
      </trkpt>
      <trkpt lat="44.95393" lon="3.08827">
        <ele>763</ele>
        <time>2010-01-01T01:45:38Z</time>
      </trkpt>
      <trkpt lat="44.95389" lon="3.08802">
        <ele>756</ele>
        <time>2010-01-01T01:45:42Z</time>
      </trkpt>
      <trkpt lat="44.95361" lon="3.08748">
        <ele>768</ele>
        <time>2010-01-01T01:45:50Z</time>
      </trkpt>
      <trkpt lat="44.95357" lon="3.08722">
        <ele>770</ele>
        <time>2010-01-01T01:45:54Z</time>
      </trkpt>
      <trkpt lat="44.95363" lon="3.08709">
        <ele>770</ele>
        <time>2010-01-01T01:45:56Z</time>
      </trkpt>
      <trkpt lat="44.95372" lon="3.08703">
        <ele>771</ele>
        <time>2010-01-01T01:45:57Z</time>
      </trkpt>
      <trkpt lat="44.95389" lon="3.08705">
        <ele>770</ele>
        <time>2010-01-01T01:46:01Z</time>
      </trkpt>
      <trkpt lat="44.95432" lon="3.0875">
        <ele>766</ele>
        <time>2010-01-01T01:46:10Z</time>
      </trkpt>
      <trkpt lat="44.95453" lon="3.08804">
        <ele>757</ele>
        <time>2010-01-01T01:46:18Z</time>
      </trkpt>
      <trkpt lat="44.95485" lon="3.08836">
        <ele>759</ele>
        <time>2010-01-01T01:46:25Z</time>
      </trkpt>
      <trkpt lat="44.95511" lon="3.08872">
        <ele>754</ele>
        <time>2010-01-01T01:46:32Z</time>
      </trkpt>
      <trkpt lat="44.95526" lon="3.08879">
        <ele>755</ele>
        <time>2010-01-01T01:46:35Z</time>
      </trkpt>
      <trkpt lat="44.95569" lon="3.08866">
        <ele>768</ele>
        <time>2010-01-01T01:46:43Z</time>
      </trkpt>
      <trkpt lat="44.95629" lon="3.0886">
        <ele>769</ele>
        <time>2010-01-01T01:46:54Z</time>
      </trkpt>
      <trkpt lat="44.957" lon="3.08812">
        <ele>756</ele>
        <time>2010-01-01T01:47:08Z</time>
      </trkpt>
      <trkpt lat="44.95708" lon="3.08795">
        <ele>754</ele>
        <time>2010-01-01T01:47:11Z</time>
      </trkpt>
      <trkpt lat="44.95721" lon="3.08727">
        <ele>765</ele>
        <time>2010-01-01T01:47:20Z</time>
      </trkpt>
      <trkpt lat="44.95751" lon="3.08666">
        <ele>758</ele>
        <time>2010-01-01T01:47:29Z</time>
      </trkpt>
      <trkpt lat="44.95835" lon="3.08557">
        <ele>764</ele>
        <time>2010-01-01T01:47:50Z</time>
      </trkpt>
      <trkpt lat="44.95859" lon="3.08536">
        <ele>755</ele>
        <time>2010-01-01T01:47:55Z</time>
      </trkpt>
      <trkpt lat="44.95874" lon="3.08536">
        <ele>749</ele>
        <time>2010-01-01T01:47:58Z</time>
      </trkpt>
      <trkpt lat="44.95906" lon="3.08559">
        <ele>740</ele>
        <time>2010-01-01T01:48:05Z</time>
      </trkpt>
      <trkpt lat="44.95919" lon="3.08572">
        <ele>743</ele>
        <time>2010-01-01T01:48:07Z</time>
      </trkpt>
      <trkpt lat="44.95925" lon="3.08585">
        <ele>749</ele>
        <time>2010-01-01T01:48:10Z</time>
      </trkpt>
      <trkpt lat="44.95923" lon="3.08619">
        <ele>757</ele>
        <time>2010-01-01T01:48:14Z</time>
      </trkpt>
      <trkpt lat="44.95861" lon="3.0878">
        <ele>756</ele>
        <time>2010-01-01T01:48:38Z</time>
      </trkpt>
      <trkpt lat="44.95811" lon="3.08855">
        <ele>751</ele>
        <time>2010-01-01T01:48:51Z</time>
      </trkpt>
      <trkpt lat="44.95771" lon="3.08943">
        <ele>756</ele>
        <time>2010-01-01T01:49:04Z</time>
      </trkpt>
      <trkpt lat="44.95741" lon="3.0899">
        <ele>758</ele>
        <time>2010-01-01T01:49:12Z</time>
      </trkpt>
      <trkpt lat="44.95745" lon="3.0901">
        <ele>759</ele>
        <time>2010-01-01T01:49:15Z</time>
      </trkpt>
      <trkpt lat="44.95758" lon="3.0901">
        <ele>761</ele>
        <time>2010-01-01T01:49:17Z</time>
      </trkpt>
      <trkpt lat="44.95771" lon="3.08969">
        <ele>761</ele>
        <time>2010-01-01T01:49:23Z</time>
      </trkpt>
      <trkpt lat="44.95803" lon="3.08915">
        <ele>760</ele>
        <time>2010-01-01T01:49:32Z</time>
      </trkpt>
      <trkpt lat="44.95876" lon="3.08834">
        <ele>779</ele>
        <time>2010-01-01T01:49:49Z</time>
      </trkpt>
      <trkpt lat="44.95927" lon="3.08748">
        <ele>791</ele>
        <time>2010-01-01T01:50:04Z</time>
      </trkpt>
      <trkpt lat="44.96017" lon="3.08536">
        <ele>804</ele>
        <time>2010-01-01T01:50:36Z</time>
      </trkpt>
      <trkpt lat="44.96047" lon="3.08392">
        <ele>812</ele>
        <time>2010-01-01T01:50:55Z</time>
      </trkpt>
      <trkpt lat="44.96067" lon="3.08325">
        <ele>810</ele>
        <time>2010-01-01T01:51:04Z</time>
      </trkpt>
      <trkpt lat="44.96078" lon="3.0831">
        <ele>813</ele>
        <time>2010-01-01T01:51:07Z</time>
      </trkpt>
      <trkpt lat="44.96101" lon="3.083">
        <ele>822</ele>
        <time>2010-01-01T01:51:11Z</time>
      </trkpt>
      <trkpt lat="44.96114" lon="3.08285">
        <ele>828</ele>
        <time>2010-01-01T01:51:14Z</time>
      </trkpt>
      <trkpt lat="44.96112" lon="3.08267">
        <ele>829</ele>
        <time>2010-01-01T01:51:17Z</time>
      </trkpt>
      <trkpt lat="44.96056" lon="3.08177">
        <ele>827</ele>
        <time>2010-01-01T01:51:32Z</time>
      </trkpt>
      <trkpt lat="44.96032" lon="3.08126">
        <ele>830</ele>
        <time>2010-01-01T01:51:40Z</time>
      </trkpt>
      <trkpt lat="44.95992" lon="3.07965">
        <ele>843</ele>
        <time>2010-01-01T01:52:02Z</time>
      </trkpt>
      <trkpt lat="44.95968" lon="3.0789">
        <ele>838</ele>
        <time>2010-01-01T01:52:13Z</time>
      </trkpt>
      <trkpt lat="44.95966" lon="3.07875">
        <ele>833</ele>
        <time>2010-01-01T01:52:15Z</time>
      </trkpt>
      <trkpt lat="44.95972" lon="3.07864">
        <ele>833</ele>
        <time>2010-01-01T01:52:16Z</time>
      </trkpt>
      <trkpt lat="44.95981" lon="3.07858">
        <ele>835</ele>
        <time>2010-01-01T01:52:18Z</time>
      </trkpt>
      <trkpt lat="44.95994" lon="3.07866">
        <ele>843</ele>
        <time>2010-01-01T01:52:21Z</time>
      </trkpt>
      <trkpt lat="44.95994" lon="3.07909">
        <ele>850</ele>
        <time>2010-01-01T01:52:26Z</time>
      </trkpt>
      <trkpt lat="44.96" lon="3.07939">
        <ele>851</ele>
        <time>2010-01-01T01:52:30Z</time>
      </trkpt>
      <trkpt lat="44.96058" lon="3.08057">
        <ele>860</ele>
        <time>2010-01-01T01:52:49Z</time>
      </trkpt>
      <trkpt lat="44.96116" lon="3.0816">
        <ele>860</ele>
        <time>2010-01-01T01:53:06Z</time>
      </trkpt>
      <trkpt lat="44.96198" lon="3.08242">
        <ele>874</ele>
        <time>2010-01-01T01:53:24Z</time>
      </trkpt>
      <trkpt lat="44.96211" lon="3.08263">
        <ele>875</ele>
        <time>2010-01-01T01:53:27Z</time>
      </trkpt>
      <trkpt lat="44.96211" lon="3.08282">
        <ele>873</ele>
        <time>2010-01-01T01:53:30Z</time>
      </trkpt>
      <trkpt lat="44.962" lon="3.08325">
        <ele>873</ele>
        <time>2010-01-01T01:53:36Z</time>
      </trkpt>
      <trkpt lat="44.96172" lon="3.08392">
        <ele>876</ele>
        <time>2010-01-01T01:53:46Z</time>
      </trkpt>
      <trkpt lat="44.96168" lon="3.08439">
        <ele>877</ele>
        <time>2010-01-01T01:53:52Z</time>
      </trkpt>
      <trkpt lat="44.96174" lon="3.08484">
        <ele>881</ele>
        <time>2010-01-01T01:53:58Z</time>
      </trkpt>
      <trkpt lat="44.96187" lon="3.08525">
        <ele>884</ele>
        <time>2010-01-01T01:54:04Z</time>
      </trkpt>
      <trkpt lat="44.96196" lon="3.08548">
        <ele>884</ele>
        <time>2010-01-01T01:54:07Z</time>
      </trkpt>
      <trkpt lat="44.96215" lon="3.08587">
        <ele>885</ele>
        <time>2010-01-01T01:54:13Z</time>
      </trkpt>
      <trkpt lat="44.9623" lon="3.08596">
        <ele>885</ele>
        <time>2010-01-01T01:54:16Z</time>
      </trkpt>
      <trkpt lat="44.9626" lon="3.08604">
        <ele>880</ele>
        <time>2010-01-01T01:54:22Z</time>
      </trkpt>
      <trkpt lat="44.96281" lon="3.08606">
        <ele>878</ele>
        <time>2010-01-01T01:54:26Z</time>
      </trkpt>
      <trkpt lat="44.96329" lon="3.08594">
        <ele>879</ele>
        <time>2010-01-01T01:54:34Z</time>
      </trkpt>
      <trkpt lat="44.96344" lon="3.08594">
        <ele>879</ele>
        <time>2010-01-01T01:54:37Z</time>
      </trkpt>
      <trkpt lat="44.96354" lon="3.086">
        <ele>878</ele>
        <time>2010-01-01T01:54:39Z</time>
      </trkpt>
      <trkpt lat="44.96363" lon="3.08617">
        <ele>877</ele>
        <time>2010-01-01T01:54:42Z</time>
      </trkpt>
      <trkpt lat="44.96361" lon="3.0863">
        <ele>876</ele>
        <time>2010-01-01T01:54:44Z</time>
      </trkpt>
      <trkpt lat="44.96324" lon="3.08664">
        <ele>873</ele>
        <time>2010-01-01T01:54:52Z</time>
      </trkpt>
      <trkpt lat="44.96307" lon="3.0869">
        <ele>872</ele>
        <time>2010-01-01T01:54:56Z</time>
      </trkpt>
      <trkpt lat="44.96288" lon="3.08735">
        <ele>870</ele>
        <time>2010-01-01T01:55:03Z</time>
      </trkpt>
      <trkpt lat="44.96273" lon="3.08804">
        <ele>880</ele>
        <time>2010-01-01T01:55:12Z</time>
      </trkpt>
      <trkpt lat="44.96258" lon="3.0881">
        <ele>880</ele>
        <time>2010-01-01T01:55:15Z</time>
      </trkpt>
      <trkpt lat="44.96234" lon="3.08804">
        <ele>878</ele>
        <time>2010-01-01T01:55:19Z</time>
      </trkpt>
      <trkpt lat="44.96213" lon="3.08804">
        <ele>877</ele>
        <time>2010-01-01T01:55:23Z</time>
      </trkpt>
      <trkpt lat="44.96189" lon="3.08819">
        <ele>876</ele>
        <time>2010-01-01T01:55:28Z</time>
      </trkpt>
      <trkpt lat="44.96172" lon="3.08847">
        <ele>873</ele>
        <time>2010-01-01T01:55:33Z</time>
      </trkpt>
      <trkpt lat="44.96159" lon="3.08937">
        <ele>882</ele>
        <time>2010-01-01T01:55:45Z</time>
      </trkpt>
      <trkpt lat="44.96129" lon="3.09053">
        <ele>882</ele>
        <time>2010-01-01T01:56:00Z</time>
      </trkpt>
      <trkpt lat="44.9614" lon="3.09074">
        <ele>884</ele>
        <time>2010-01-01T01:56:04Z</time>
      </trkpt>
      <trkpt lat="44.96178" lon="3.09102">
        <ele>891</ele>
        <time>2010-01-01T01:56:12Z</time>
      </trkpt>
      <trkpt lat="44.96185" lon="3.09117">
        <ele>891</ele>
        <time>2010-01-01T01:56:14Z</time>
      </trkpt>
      <trkpt lat="44.96185" lon="3.09141">
        <ele>891</ele>
        <time>2010-01-01T01:56:17Z</time>
      </trkpt>
      <trkpt lat="44.96172" lon="3.09184">
        <ele>893</ele>
        <time>2010-01-01T01:56:23Z</time>
      </trkpt>
      <trkpt lat="44.9614" lon="3.09216">
        <ele>889</ele>
        <time>2010-01-01T01:56:30Z</time>
      </trkpt>
      <trkpt lat="44.96123" lon="3.09246">
        <ele>888</ele>
        <time>2010-01-01T01:56:35Z</time>
      </trkpt>
      <trkpt lat="44.96116" lon="3.09267">
        <ele>889</ele>
        <time>2010-01-01T01:56:38Z</time>
      </trkpt>
      <trkpt lat="44.9612" lon="3.0931">
        <ele>891</ele>
        <time>2010-01-01T01:56:44Z</time>
      </trkpt>
      <trkpt lat="44.96138" lon="3.09362">
        <ele>893</ele>
        <time>2010-01-01T01:56:51Z</time>
      </trkpt>
      <trkpt lat="44.96196" lon="3.09445">
        <ele>898</ele>
        <time>2010-01-01T01:57:06Z</time>
      </trkpt>
      <trkpt lat="44.96211" lon="3.09465">
        <ele>899</ele>
        <time>2010-01-01T01:57:10Z</time>
      </trkpt>
      <trkpt lat="44.96251" lon="3.09493">
        <ele>908</ele>
        <time>2010-01-01T01:57:18Z</time>
      </trkpt>
      <trkpt lat="44.96271" lon="3.09512">
        <ele>911</ele>
        <time>2010-01-01T01:57:22Z</time>
      </trkpt>
      <trkpt lat="44.96305" lon="3.09585">
        <ele>913</ele>
        <time>2010-01-01T01:57:34Z</time>
      </trkpt>
      <trkpt lat="44.96348" lon="3.0966">
        <ele>917</ele>
        <time>2010-01-01T01:57:46Z</time>
      </trkpt>
      <trkpt lat="44.96363" lon="3.09674">
        <ele>916</ele>
        <time>2010-01-01T01:57:49Z</time>
      </trkpt>
      <trkpt lat="44.96419" lon="3.09726">
        <ele>919</ele>
        <time>2010-01-01T01:58:02Z</time>
      </trkpt>
      <trkpt lat="44.96526" lon="3.09902">
        <ele>932</ele>
        <time>2010-01-01T01:58:31Z</time>
      </trkpt>
      <trkpt lat="44.9655" lon="3.09954">
        <ele>932</ele>
        <time>2010-01-01T01:58:39Z</time>
      </trkpt>
      <trkpt lat="44.9658" lon="3.10033">
        <ele>934</ele>
        <time>2010-01-01T01:58:51Z</time>
      </trkpt>
      <trkpt lat="44.96586" lon="3.10072">
        <ele>933</ele>
        <time>2010-01-01T01:58:56Z</time>
      </trkpt>
      <trkpt lat="44.96588" lon="3.10158">
        <ele>934</ele>
        <time>2010-01-01T01:59:07Z</time>
      </trkpt>
      <trkpt lat="44.96618" lon="3.1025">
        <ele>933</ele>
        <time>2010-01-01T01:59:20Z</time>
      </trkpt>
      <trkpt lat="44.9662" lon="3.10299">
        <ele>930</ele>
        <time>2010-01-01T01:59:27Z</time>
      </trkpt>
      <trkpt lat="44.96575" lon="3.10493">
        <ele>935</ele>
        <time>2010-01-01T01:59:53Z</time>
      </trkpt>
      <trkpt lat="44.96556" lon="3.10533">
        <ele>935</ele>
        <time>2010-01-01T01:59:59Z</time>
      </trkpt>
      <trkpt lat="44.96515" lon="3.10585">
        <ele>937</ele>
        <time>2010-01-01T02:00:09Z</time>
      </trkpt>
      <trkpt lat="44.96511" lon="3.10604">
        <ele>939</ele>
        <time>2010-01-01T02:00:12Z</time>
      </trkpt>
      <trkpt lat="44.96513" lon="3.10634">
        <ele>941</ele>
        <time>2010-01-01T02:00:15Z</time>
      </trkpt>
      <trkpt lat="44.96558" lon="3.10692">
        <ele>942</ele>
        <time>2010-01-01T02:00:27Z</time>
      </trkpt>
      <trkpt lat="44.96575" lon="3.1072">
        <ele>941</ele>
        <time>2010-01-01T02:00:31Z</time>
      </trkpt>
      <trkpt lat="44.96704" lon="3.11005">
        <ele>925</ele>
        <time>2010-01-01T02:01:15Z</time>
      </trkpt>
      <trkpt lat="44.96726" lon="3.11038">
        <ele>923</ele>
        <time>2010-01-01T02:01:21Z</time>
      </trkpt>
      <trkpt lat="44.96749" lon="3.11055">
        <ele>923</ele>
        <time>2010-01-01T02:01:25Z</time>
      </trkpt>
      <trkpt lat="44.96771" lon="3.11104">
        <ele>922</ele>
        <time>2010-01-01T02:01:33Z</time>
      </trkpt>
      <trkpt lat="44.96783" lon="3.11119">
        <ele>923</ele>
        <time>2010-01-01T02:01:36Z</time>
      </trkpt>
      <trkpt lat="44.96837" lon="3.11136">
        <ele>922</ele>
        <time>2010-01-01T02:01:46Z</time>
      </trkpt>
      <trkpt lat="44.9688" lon="3.1116">
        <ele>921</ele>
        <time>2010-01-01T02:01:54Z</time>
      </trkpt>
      <trkpt lat="44.96932" lon="3.11218">
        <ele>920</ele>
        <time>2010-01-01T02:02:06Z</time>
      </trkpt>
      <trkpt lat="44.96955" lon="3.11226">
        <ele>919</ele>
        <time>2010-01-01T02:02:11Z</time>
      </trkpt>
      <trkpt lat="44.96987" lon="3.11224">
        <ele>918</ele>
        <time>2010-01-01T02:02:17Z</time>
      </trkpt>
      <trkpt lat="44.97178" lon="3.11218">
        <ele>914</ele>
        <time>2010-01-01T02:02:51Z</time>
      </trkpt>
      <trkpt lat="44.97298" lon="3.11173">
        <ele>916</ele>
        <time>2010-01-01T02:03:14Z</time>
      </trkpt>
      <trkpt lat="44.97361" lon="3.11158">
        <ele>915</ele>
        <time>2010-01-01T02:03:25Z</time>
      </trkpt>
      <trkpt lat="44.97376" lon="3.11145">
        <ele>913</ele>
        <time>2010-01-01T02:03:29Z</time>
      </trkpt>
      <trkpt lat="44.97414" lon="3.11091">
        <ele>910</ele>
        <time>2010-01-01T02:03:38Z</time>
      </trkpt>
      <trkpt lat="44.97462" lon="3.10977">
        <ele>908</ele>
        <time>2010-01-01T02:03:55Z</time>
      </trkpt>
      <trkpt lat="44.97483" lon="3.10956">
        <ele>908</ele>
        <time>2010-01-01T02:04:00Z</time>
      </trkpt>
      <trkpt lat="44.97509" lon="3.10956">
        <ele>909</ele>
        <time>2010-01-01T02:04:05Z</time>
      </trkpt>
      <trkpt lat="44.97543" lon="3.10984">
        <ele>913</ele>
        <time>2010-01-01T02:04:12Z</time>
      </trkpt>
      <trkpt lat="44.9755" lon="3.1101">
        <ele>913</ele>
        <time>2010-01-01T02:04:16Z</time>
      </trkpt>
      <trkpt lat="44.97537" lon="3.11057">
        <ele>908</ele>
        <time>2010-01-01T02:04:22Z</time>
      </trkpt>
      <trkpt lat="44.97539" lon="3.11074">
        <ele>908</ele>
        <time>2010-01-01T02:04:24Z</time>
      </trkpt>
      <trkpt lat="44.9755" lon="3.11093">
        <ele>910</ele>
        <time>2010-01-01T02:04:28Z</time>
      </trkpt>
      <trkpt lat="44.9756" lon="3.11098">
        <ele>912</ele>
        <time>2010-01-01T02:04:30Z</time>
      </trkpt>
      <trkpt lat="44.97573" lon="3.11093">
        <ele>914</ele>
        <time>2010-01-01T02:04:32Z</time>
      </trkpt>
      <trkpt lat="44.97605" lon="3.11078">
        <ele>919</ele>
        <time>2010-01-01T02:04:38Z</time>
      </trkpt>
      <trkpt lat="44.97625" lon="3.11078">
        <ele>921</ele>
        <time>2010-01-01T02:04:42Z</time>
      </trkpt>
      <trkpt lat="44.97633" lon="3.11087">
        <ele>922</ele>
        <time>2010-01-01T02:04:44Z</time>
      </trkpt>
      <trkpt lat="44.97642" lon="3.11104">
        <ele>922</ele>
        <time>2010-01-01T02:04:46Z</time>
      </trkpt>
      <trkpt lat="44.97653" lon="3.11151">
        <ele>924</ele>
        <time>2010-01-01T02:04:53Z</time>
      </trkpt>
      <trkpt lat="44.97665" lon="3.11171">
        <ele>925</ele>
        <time>2010-01-01T02:04:56Z</time>
      </trkpt>
      <trkpt lat="44.97713" lon="3.11192">
        <ele>927</ele>
        <time>2010-01-01T02:05:05Z</time>
      </trkpt>
      <trkpt lat="44.97749" lon="3.11196">
        <ele>925</ele>
        <time>2010-01-01T02:05:12Z</time>
      </trkpt>
      <trkpt lat="44.97773" lon="3.11186">
        <ele>926</ele>
        <time>2010-01-01T02:05:16Z</time>
      </trkpt>
      <trkpt lat="44.97792" lon="3.11168">
        <ele>927</ele>
        <time>2010-01-01T02:05:20Z</time>
      </trkpt>
      <trkpt lat="44.97824" lon="3.11149">
        <ele>927</ele>
        <time>2010-01-01T02:05:27Z</time>
      </trkpt>
      <trkpt lat="44.97854" lon="3.11149">
        <ele>926</ele>
        <time>2010-01-01T02:05:32Z</time>
      </trkpt>
      <trkpt lat="44.98037" lon="3.11289">
        <ele>926</ele>
        <time>2010-01-01T02:06:10Z</time>
      </trkpt>
      <trkpt lat="44.98067" lon="3.11299">
        <ele>926</ele>
        <time>2010-01-01T02:06:16Z</time>
      </trkpt>
      <trkpt lat="44.98095" lon="3.11297">
        <ele>925</ele>
        <time>2010-01-01T02:06:21Z</time>
      </trkpt>
      <trkpt lat="44.98137" lon="3.11274">
        <ele>925</ele>
        <time>2010-01-01T02:06:29Z</time>
      </trkpt>
      <trkpt lat="44.98187" lon="3.11222">
        <ele>922</ele>
        <time>2010-01-01T02:06:40Z</time>
      </trkpt>
      <trkpt lat="44.98217" lon="3.11201">
        <ele>921</ele>
        <time>2010-01-01T02:06:46Z</time>
      </trkpt>
      <trkpt lat="44.9841" lon="3.11141">
        <ele>906</ele>
        <time>2010-01-01T02:07:22Z</time>
      </trkpt>
      <trkpt lat="44.98436" lon="3.11119">
        <ele>907</ele>
        <time>2010-01-01T02:07:28Z</time>
      </trkpt>
      <trkpt lat="44.98509" lon="3.11025">
        <ele>909</ele>
        <time>2010-01-01T02:07:46Z</time>
      </trkpt>
      <trkpt lat="44.98524" lon="3.11016">
        <ele>907</ele>
        <time>2010-01-01T02:07:49Z</time>
      </trkpt>
      <trkpt lat="44.98539" lon="3.11016">
        <ele>908</ele>
        <time>2010-01-01T02:07:51Z</time>
      </trkpt>
      <trkpt lat="44.98549" lon="3.11025">
        <ele>908</ele>
        <time>2010-01-01T02:07:54Z</time>
      </trkpt>
      <trkpt lat="44.98553" lon="3.11031">
        <ele>907</ele>
        <time>2010-01-01T02:07:55Z</time>
      </trkpt>
      <trkpt lat="44.98562" lon="3.11046">
        <ele>906</ele>
        <time>2010-01-01T02:07:57Z</time>
      </trkpt>
      <trkpt lat="44.98582" lon="3.11168">
        <ele>901</ele>
        <time>2010-01-01T02:08:13Z</time>
      </trkpt>
      <trkpt lat="44.98627" lon="3.11239">
        <ele>905</ele>
        <time>2010-01-01T02:08:26Z</time>
      </trkpt>
      <trkpt lat="44.9864" lon="3.11271">
        <ele>906</ele>
        <time>2010-01-01T02:08:31Z</time>
      </trkpt>
      <trkpt lat="44.98652" lon="3.11462">
        <ele>901</ele>
        <time>2010-01-01T02:08:55Z</time>
      </trkpt>
      <trkpt lat="44.98661" lon="3.11488">
        <ele>901</ele>
        <time>2010-01-01T02:08:59Z</time>
      </trkpt>
      <trkpt lat="44.98672" lon="3.11501">
        <ele>901</ele>
        <time>2010-01-01T02:09:01Z</time>
      </trkpt>
      <trkpt lat="44.98695" lon="3.11503">
        <ele>905</ele>
        <time>2010-01-01T02:09:06Z</time>
      </trkpt>
      <trkpt lat="44.98734" lon="3.11499">
        <ele>907</ele>
        <time>2010-01-01T02:09:13Z</time>
      </trkpt>
      <trkpt lat="44.98775" lon="3.11482">
        <ele>910</ele>
        <time>2010-01-01T02:09:21Z</time>
      </trkpt>
      <trkpt lat="44.98792" lon="3.11482">
        <ele>910</ele>
        <time>2010-01-01T02:09:24Z</time>
      </trkpt>
      <trkpt lat="44.98816" lon="3.11497">
        <ele>908</ele>
        <time>2010-01-01T02:09:28Z</time>
      </trkpt>
      <trkpt lat="44.98848" lon="3.11538">
        <ele>903</ele>
        <time>2010-01-01T02:09:36Z</time>
      </trkpt>
      <trkpt lat="44.98861" lon="3.11546">
        <ele>901</ele>
        <time>2010-01-01T02:09:39Z</time>
      </trkpt>
      <trkpt lat="44.98906" lon="3.11535">
        <ele>904</ele>
        <time>2010-01-01T02:09:47Z</time>
      </trkpt>
      <trkpt lat="44.98925" lon="3.11546">
        <ele>902</ele>
        <time>2010-01-01T02:09:51Z</time>
      </trkpt>
      <trkpt lat="44.98938" lon="3.11568">
        <ele>901</ele>
        <time>2010-01-01T02:09:55Z</time>
      </trkpt>
      <trkpt lat="44.98944" lon="3.11649">
        <ele>896</ele>
        <time>2010-01-01T02:10:05Z</time>
      </trkpt>
      <trkpt lat="44.98957" lon="3.11688">
        <ele>896</ele>
        <time>2010-01-01T02:10:11Z</time>
      </trkpt>
      <trkpt lat="44.99032" lon="3.11759">
        <ele>897</ele>
        <time>2010-01-01T02:10:27Z</time>
      </trkpt>
      <trkpt lat="44.99071" lon="3.11774">
        <ele>895</ele>
        <time>2010-01-01T02:10:34Z</time>
      </trkpt>
      <trkpt lat="44.992" lon="3.11769">
        <ele>895</ele>
        <time>2010-01-01T02:10:58Z</time>
      </trkpt>
      <trkpt lat="44.99245" lon="3.11801">
        <ele>894</ele>
        <time>2010-01-01T02:11:07Z</time>
      </trkpt>
      <trkpt lat="44.99281" lon="3.1181">
        <ele>894</ele>
        <time>2010-01-01T02:11:14Z</time>
      </trkpt>
      <trkpt lat="44.99296" lon="3.11821">
        <ele>894</ele>
        <time>2010-01-01T02:11:17Z</time>
      </trkpt>
      <trkpt lat="44.99309" lon="3.11838">
        <ele>893</ele>
        <time>2010-01-01T02:11:20Z</time>
      </trkpt>
      <trkpt lat="44.99337" lon="3.11892">
        <ele>892</ele>
        <time>2010-01-01T02:11:28Z</time>
      </trkpt>
      <trkpt lat="44.99361" lon="3.11917">
        <ele>891</ele>
        <time>2010-01-01T02:11:34Z</time>
      </trkpt>
      <trkpt lat="44.99438" lon="3.11945">
        <ele>890</ele>
        <time>2010-01-01T02:11:48Z</time>
      </trkpt>
      <trkpt lat="44.99496" lon="3.1196">
        <ele>890</ele>
        <time>2010-01-01T02:11:59Z</time>
      </trkpt>
      <trkpt lat="44.99594" lon="3.11934">
        <ele>896</ele>
        <time>2010-01-01T02:12:17Z</time>
      </trkpt>
      <trkpt lat="44.99633" lon="3.11934">
        <ele>895</ele>
        <time>2010-01-01T02:12:24Z</time>
      </trkpt>
      <trkpt lat="44.9968" lon="3.11952">
        <ele>897</ele>
        <time>2010-01-01T02:12:33Z</time>
      </trkpt>
      <trkpt lat="44.99779" lon="3.12003">
        <ele>891</ele>
        <time>2010-01-01T02:12:52Z</time>
      </trkpt>
      <trkpt lat="44.99805" lon="3.12005">
        <ele>890</ele>
        <time>2010-01-01T02:12:57Z</time>
      </trkpt>
      <trkpt lat="44.99886" lon="3.11919">
        <ele>893</ele>
        <time>2010-01-01T02:13:16Z</time>
      </trkpt>
      <trkpt lat="44.99901" lon="3.11913">
        <ele>893</ele>
        <time>2010-01-01T02:13:18Z</time>
      </trkpt>
      <trkpt lat="44.99927" lon="3.11913">
        <ele>891</ele>
        <time>2010-01-01T02:13:23Z</time>
      </trkpt>
      <trkpt lat="44.99972" lon="3.11926">
        <ele>889</ele>
        <time>2010-01-01T02:13:32Z</time>
      </trkpt>
      <trkpt lat="45" lon="3.11941">
        <ele>886</ele>
        <time>2010-01-01T02:13:37Z</time>
      </trkpt>
      <trkpt lat="45.00047" lon="3.1199">
        <ele>886</ele>
        <time>2010-01-01T02:13:48Z</time>
      </trkpt>
      <trkpt lat="45.00105" lon="3.12012">
        <ele>886</ele>
        <time>2010-01-01T02:13:59Z</time>
      </trkpt>
      <trkpt lat="45.00161" lon="3.12014">
        <ele>886</ele>
        <time>2010-01-01T02:14:09Z</time>
      </trkpt>
      <trkpt lat="45.00212" lon="3.12001">
        <ele>883</ele>
        <time>2010-01-01T02:14:18Z</time>
      </trkpt>
      <trkpt lat="45.00266" lon="3.11971">
        <ele>882</ele>
        <time>2010-01-01T02:14:29Z</time>
      </trkpt>
      <trkpt lat="45.00294" lon="3.11945">
        <ele>879</ele>
        <time>2010-01-01T02:14:35Z</time>
      </trkpt>
      <trkpt lat="45.00354" lon="3.11834">
        <ele>875</ele>
        <time>2010-01-01T02:14:53Z</time>
      </trkpt>
      <trkpt lat="45.00384" lon="3.11804">
        <ele>877</ele>
        <time>2010-01-01T02:14:59Z</time>
      </trkpt>
      <trkpt lat="45.00509" lon="3.11739">
        <ele>884</ele>
        <time>2010-01-01T02:15:24Z</time>
      </trkpt>
      <trkpt lat="45.0062" lon="3.11726">
        <ele>884</ele>
        <time>2010-01-01T02:15:44Z</time>
      </trkpt>
      <trkpt lat="45.00736" lon="3.11722">
        <ele>884</ele>
        <time>2010-01-01T02:16:05Z</time>
      </trkpt>
      <trkpt lat="45.00794" lon="3.11716">
        <ele>881</ele>
        <time>2010-01-01T02:16:16Z</time>
      </trkpt>
      <trkpt lat="45.00824" lon="3.11698">
        <ele>880</ele>
        <time>2010-01-01T02:16:22Z</time>
      </trkpt>
      <trkpt lat="45.00839" lon="3.11688">
        <ele>879</ele>
        <time>2010-01-01T02:16:25Z</time>
      </trkpt>
      <trkpt lat="45.00865" lon="3.11666">
        <ele>878</ele>
        <time>2010-01-01T02:16:30Z</time>
      </trkpt>
      <trkpt lat="45.00878" lon="3.11643">
        <ele>878</ele>
        <time>2010-01-01T02:16:34Z</time>
      </trkpt>
      <trkpt lat="45.00884" lon="3.11606">
        <ele>879</ele>
        <time>2010-01-01T02:16:39Z</time>
      </trkpt>
      <trkpt lat="45.00882" lon="3.11587">
        <ele>879</ele>
        <time>2010-01-01T02:16:41Z</time>
      </trkpt>
      <trkpt lat="45.00848" lon="3.11409">
        <ele>873</ele>
        <time>2010-01-01T02:17:05Z</time>
      </trkpt>
      <trkpt lat="45.00828" lon="3.11329">
        <ele>868</ele>
        <time>2010-01-01T02:17:16Z</time>
      </trkpt>
      <trkpt lat="45.00809" lon="3.11271">
        <ele>866</ele>
        <time>2010-01-01T02:17:24Z</time>
      </trkpt>
      <trkpt lat="45.00706" lon="3.11095">
        <ele>853</ele>
        <time>2010-01-01T02:17:53Z</time>
      </trkpt>
      <trkpt lat="45.00697" lon="3.11016">
        <ele>850</ele>
        <time>2010-01-01T02:18:04Z</time>
      </trkpt>
      <trkpt lat="45.007" lon="3.10973">
        <ele>848</ele>
        <time>2010-01-01T02:18:09Z</time>
      </trkpt>
      <trkpt lat="45.00712" lon="3.10947">
        <ele>845</ele>
        <time>2010-01-01T02:18:13Z</time>
      </trkpt>
      <trkpt lat="45.00781" lon="3.10885">
        <ele>839</ele>
        <time>2010-01-01T02:18:28Z</time>
      </trkpt>
      <trkpt lat="45.00809" lon="3.10853">
        <ele>840</ele>
        <time>2010-01-01T02:18:35Z</time>
      </trkpt>
      <trkpt lat="45.00826" lon="3.10849">
        <ele>842</ele>
        <time>2010-01-01T02:18:38Z</time>
      </trkpt>
      <trkpt lat="45.0088" lon="3.10862">
        <ele>845</ele>
        <time>2010-01-01T02:18:48Z</time>
      </trkpt>
      <trkpt lat="45.00899" lon="3.10859">
        <ele>847</ele>
        <time>2010-01-01T02:18:51Z</time>
      </trkpt>
      <trkpt lat="45.00914" lon="3.10851">
        <ele>849</ele>
        <time>2010-01-01T02:18:54Z</time>
      </trkpt>
      <trkpt lat="45.00948" lon="3.10806">
        <ele>851</ele>
        <time>2010-01-01T02:19:03Z</time>
      </trkpt>
      <trkpt lat="45.00972" lon="3.10789">
        <ele>852</ele>
        <time>2010-01-01T02:19:08Z</time>
      </trkpt>
      <trkpt lat="45.00996" lon="3.10789">
        <ele>853</ele>
        <time>2010-01-01T02:19:12Z</time>
      </trkpt>
      <trkpt lat="45.0103" lon="3.10802">
        <ele>853</ele>
        <time>2010-01-01T02:19:18Z</time>
      </trkpt>
      <trkpt lat="45.01047" lon="3.10795">
        <ele>853</ele>
        <time>2010-01-01T02:19:22Z</time>
      </trkpt>
      <trkpt lat="45.01051" lon="3.10782">
        <ele>853</ele>
        <time>2010-01-01T02:19:23Z</time>
      </trkpt>
      <trkpt lat="45.01051" lon="3.10765">
        <ele>854</ele>
        <time>2010-01-01T02:19:26Z</time>
      </trkpt>
      <trkpt lat="45.01002" lon="3.10611">
        <ele>858</ele>
        <time>2010-01-01T02:19:47Z</time>
      </trkpt>
      <trkpt lat="45.00993" lon="3.10527">
        <ele>853</ele>
        <time>2010-01-01T02:19:58Z</time>
      </trkpt>
      <trkpt lat="45.00959" lon="3.10439">
        <ele>854</ele>
        <time>2010-01-01T02:20:11Z</time>
      </trkpt>
      <trkpt lat="45.00957" lon="3.104">
        <ele>856</ele>
        <time>2010-01-01T02:20:16Z</time>
      </trkpt>
      <trkpt lat="45.00972" lon="3.1037">
        <ele>856</ele>
        <time>2010-01-01T02:20:21Z</time>
      </trkpt>
      <trkpt lat="45.00991" lon="3.10344">
        <ele>859</ele>
        <time>2010-01-01T02:20:26Z</time>
      </trkpt>
      <trkpt lat="45.01013" lon="3.10332">
        <ele>862</ele>
        <time>2010-01-01T02:20:30Z</time>
      </trkpt>
      <trkpt lat="45.01058" lon="3.10317">
        <ele>864</ele>
        <time>2010-01-01T02:20:38Z</time>
      </trkpt>
      <trkpt lat="45.0109" lon="3.10295">
        <ele>866</ele>
        <time>2010-01-01T02:20:45Z</time>
      </trkpt>
      <trkpt lat="45.01116" lon="3.10261">
        <ele>868</ele>
        <time>2010-01-01T02:20:51Z</time>
      </trkpt>
      <trkpt lat="45.01148" lon="3.10192">
        <ele>868</ele>
        <time>2010-01-01T02:21:02Z</time>
      </trkpt>
      <trkpt lat="45.01176" lon="3.10181">
        <ele>869</ele>
        <time>2010-01-01T02:21:07Z</time>
      </trkpt>
      <trkpt lat="45.01206" lon="3.10192">
        <ele>872</ele>
        <time>2010-01-01T02:21:13Z</time>
      </trkpt>
      <trkpt lat="45.01247" lon="3.1025">
        <ele>871</ele>
        <time>2010-01-01T02:21:23Z</time>
      </trkpt>
      <trkpt lat="45.01292" lon="3.10306">
        <ele>873</ele>
        <time>2010-01-01T02:21:34Z</time>
      </trkpt>
      <trkpt lat="45.01416" lon="3.10486">
        <ele>876</ele>
        <time>2010-01-01T02:22:07Z</time>
      </trkpt>
      <trkpt lat="45.01417" lon="3.10487">
        <ele>876</ele>
        <time>2010-01-01T02:22:07Z</time>
      </trkpt>
      <trkpt lat="45.01448" lon="3.10514">
        <ele>877</ele>
        <time>2010-01-01T02:22:14Z</time>
      </trkpt>
      <trkpt lat="45.01472" lon="3.10518">
        <ele>877</ele>
        <time>2010-01-01T02:22:18Z</time>
      </trkpt>
      <trkpt lat="45.01498" lon="3.1051">
        <ele>876</ele>
        <time>2010-01-01T02:22:23Z</time>
      </trkpt>
      <trkpt lat="45.01517" lon="3.10486">
        <ele>877</ele>
        <time>2010-01-01T02:22:27Z</time>
      </trkpt>
      <trkpt lat="45.01541" lon="3.10445">
        <ele>878</ele>
        <time>2010-01-01T02:22:34Z</time>
      </trkpt>
      <trkpt lat="45.01558" lon="3.1043">
        <ele>877</ele>
        <time>2010-01-01T02:22:38Z</time>
      </trkpt>
      <trkpt lat="45.01584" lon="3.10426">
        <ele>876</ele>
        <time>2010-01-01T02:22:43Z</time>
      </trkpt>
      <trkpt lat="45.01642" lon="3.10441">
        <ele>876</ele>
        <time>2010-01-01T02:22:53Z</time>
      </trkpt>
      <trkpt lat="45.01676" lon="3.1043">
        <ele>875</ele>
        <time>2010-01-01T02:23:00Z</time>
      </trkpt>
      <trkpt lat="45.01699" lon="3.10394">
        <ele>876</ele>
        <time>2010-01-01T02:23:06Z</time>
      </trkpt>
      <trkpt lat="45.01723" lon="3.10295">
        <ele>880</ele>
        <time>2010-01-01T02:23:19Z</time>
      </trkpt>
      <trkpt lat="45.01738" lon="3.10261">
        <ele>879</ele>
        <time>2010-01-01T02:23:25Z</time>
      </trkpt>
      <trkpt lat="45.01772" lon="3.10233">
        <ele>880</ele>
        <time>2010-01-01T02:23:32Z</time>
      </trkpt>
      <trkpt lat="45.01837" lon="3.10224">
        <ele>881</ele>
        <time>2010-01-01T02:23:44Z</time>
      </trkpt>
      <trkpt lat="45.01869" lon="3.10203">
        <ele>881</ele>
        <time>2010-01-01T02:23:50Z</time>
      </trkpt>
      <trkpt lat="45.01899" lon="3.10158">
        <ele>880</ele>
        <time>2010-01-01T02:23:58Z</time>
      </trkpt>
      <trkpt lat="45.01923" lon="3.10063">
        <ele>883</ele>
        <time>2010-01-01T02:24:11Z</time>
      </trkpt>
      <trkpt lat="45.01935" lon="3.10005">
        <ele>883</ele>
        <time>2010-01-01T02:24:19Z</time>
      </trkpt>
      <trkpt lat="45.01938" lon="3.09975">
        <ele>883</ele>
        <time>2010-01-01T02:24:23Z</time>
      </trkpt>
      <trkpt lat="45.01929" lon="3.09928">
        <ele>883</ele>
        <time>2010-01-01T02:24:29Z</time>
      </trkpt>
      <trkpt lat="45.01905" lon="3.09868">
        <ele>880</ele>
        <time>2010-01-01T02:24:38Z</time>
      </trkpt>
      <trkpt lat="45.01901" lon="3.09834">
        <ele>878</ele>
        <time>2010-01-01T02:24:42Z</time>
      </trkpt>
      <trkpt lat="45.01908" lon="3.09802">
        <ele>877</ele>
        <time>2010-01-01T02:24:46Z</time>
      </trkpt>
      <trkpt lat="45.01933" lon="3.09722">
        <ele>870</ele>
        <time>2010-01-01T02:24:58Z</time>
      </trkpt>
      <trkpt lat="45.01944" lon="3.09703">
        <ele>870</ele>
        <time>2010-01-01T02:25:01Z</time>
      </trkpt>
      <trkpt lat="45.01959" lon="3.0969">
        <ele>869</ele>
        <time>2010-01-01T02:25:04Z</time>
      </trkpt>
      <trkpt lat="45.02019" lon="3.09692">
        <ele>869</ele>
        <time>2010-01-01T02:25:15Z</time>
      </trkpt>
      <trkpt lat="45.02066" lon="3.09662">
        <ele>863</ele>
        <time>2010-01-01T02:25:24Z</time>
      </trkpt>
      <trkpt lat="45.02135" lon="3.09688">
        <ele>863</ele>
        <time>2010-01-01T02:25:37Z</time>
      </trkpt>
      <trkpt lat="45.02156" lon="3.09686">
        <ele>862</ele>
        <time>2010-01-01T02:25:41Z</time>
      </trkpt>
      <trkpt lat="45.02165" lon="3.09673">
        <ele>862</ele>
        <time>2010-01-01T02:25:44Z</time>
      </trkpt>
      <trkpt lat="45.02165" lon="3.09647">
        <ele>861</ele>
        <time>2010-01-01T02:25:47Z</time>
      </trkpt>
      <trkpt lat="45.02124" lon="3.09563">
        <ele>861</ele>
        <time>2010-01-01T02:26:00Z</time>
      </trkpt>
      <trkpt lat="45.02105" lon="3.09544">
        <ele>857</ele>
        <time>2010-01-01T02:26:04Z</time>
      </trkpt>
      <trkpt lat="45.0206" lon="3.09516">
        <ele>848</ele>
        <time>2010-01-01T02:26:13Z</time>
      </trkpt>
      <trkpt lat="45.02043" lon="3.0949">
        <ele>845</ele>
        <time>2010-01-01T02:26:18Z</time>
      </trkpt>
      <trkpt lat="45.02036" lon="3.09465">
        <ele>844</ele>
        <time>2010-01-01T02:26:21Z</time>
      </trkpt>
      <trkpt lat="45.02034" lon="3.0943">
        <ele>842</ele>
        <time>2010-01-01T02:26:26Z</time>
      </trkpt>
      <trkpt lat="45.02051" lon="3.09353">
        <ele>840</ele>
        <time>2010-01-01T02:26:36Z</time>
      </trkpt>
      <trkpt lat="45.02066" lon="3.09323">
        <ele>839</ele>
        <time>2010-01-01T02:26:41Z</time>
      </trkpt>
      <trkpt lat="45.02081" lon="3.09304">
        <ele>837</ele>
        <time>2010-01-01T02:26:45Z</time>
      </trkpt>
      <trkpt lat="45.02161" lon="3.09272">
        <ele>831</ele>
        <time>2010-01-01T02:27:00Z</time>
      </trkpt>
      <trkpt lat="45.02214" lon="3.09222">
        <ele>828</ele>
        <time>2010-01-01T02:27:11Z</time>
      </trkpt>
      <trkpt lat="45.0224" lon="3.09209">
        <ele>828</ele>
        <time>2010-01-01T02:27:16Z</time>
      </trkpt>
      <trkpt lat="45.02298" lon="3.09209">
        <ele>824</ele>
        <time>2010-01-01T02:27:27Z</time>
      </trkpt>
      <trkpt lat="45.02322" lon="3.09231">
        <ele>824</ele>
        <time>2010-01-01T02:27:32Z</time>
      </trkpt>
      <trkpt lat="45.02367" lon="3.09289">
        <ele>825</ele>
        <time>2010-01-01T02:27:43Z</time>
      </trkpt>
      <trkpt lat="45.02401" lon="3.09314">
        <ele>822</ele>
        <time>2010-01-01T02:27:50Z</time>
      </trkpt>
      <trkpt lat="45.02444" lon="3.09327">
        <ele>819</ele>
        <time>2010-01-01T02:27:58Z</time>
      </trkpt>
      <trkpt lat="45.02562" lon="3.09347">
        <ele>808</ele>
        <time>2010-01-01T02:28:20Z</time>
      </trkpt>
      <trkpt lat="45.02586" lon="3.09359">
        <ele>806</ele>
        <time>2010-01-01T02:28:24Z</time>
      </trkpt>
      <trkpt lat="45.02596" lon="3.09364">
        <ele>805</ele>
        <time>2010-01-01T02:28:26Z</time>
      </trkpt>
      <trkpt lat="45.02637" lon="3.09396">
        <ele>805</ele>
        <time>2010-01-01T02:28:35Z</time>
      </trkpt>
      <trkpt lat="45.02671" lon="3.09411">
        <ele>804</ele>
        <time>2010-01-01T02:28:41Z</time>
      </trkpt>
      <trkpt lat="45.02714" lon="3.09415">
        <ele>800</ele>
        <time>2010-01-01T02:28:49Z</time>
      </trkpt>
      <trkpt lat="45.02759" lon="3.0939">
        <ele>796</ele>
        <time>2010-01-01T02:28:58Z</time>
      </trkpt>
      <trkpt lat="45.02798" lon="3.09368">
        <ele>794</ele>
        <time>2010-01-01T02:29:05Z</time>
      </trkpt>
      <trkpt lat="45.02845" lon="3.09342">
        <ele>791</ele>
        <time>2010-01-01T02:29:15Z</time>
      </trkpt>
      <trkpt lat="45.02918" lon="3.09338">
        <ele>787</ele>
        <time>2010-01-01T02:29:28Z</time>
      </trkpt>
      <trkpt lat="45.02963" lon="3.09327">
        <ele>787</ele>
        <time>2010-01-01T02:29:36Z</time>
      </trkpt>
      <trkpt lat="45.03006" lon="3.09308">
        <ele>787</ele>
        <time>2010-01-01T02:29:44Z</time>
      </trkpt>
      <trkpt lat="45.03015" lon="3.09319">
        <ele>789</ele>
        <time>2010-01-01T02:29:47Z</time>
      </trkpt>
      <trkpt lat="45.03051" lon="3.0946">
        <ele>787</ele>
        <time>2010-01-01T02:30:06Z</time>
      </trkpt>
      <trkpt lat="45.03081" lon="3.09546">
        <ele>784</ele>
        <time>2010-01-01T02:30:18Z</time>
      </trkpt>
      <trkpt lat="45.03096" lon="3.09566">
        <ele>786</ele>
        <time>2010-01-01T02:30:22Z</time>
      </trkpt>
      <trkpt lat="45.0311" lon="3.09606">
        <ele>786</ele>
        <time>2010-01-01T02:30:28Z</time>
      </trkpt>
      <trkpt lat="45.03135" lon="3.09681">
        <ele>782</ele>
        <time>2010-01-01T02:30:38Z</time>
      </trkpt>
      <trkpt lat="45.03141" lon="3.09707">
        <ele>781</ele>
        <time>2010-01-01T02:30:42Z</time>
      </trkpt>
      <trkpt lat="45.03174" lon="3.09802">
        <ele>779</ele>
        <time>2010-01-01T02:30:55Z</time>
      </trkpt>
      <trkpt lat="45.03225" lon="3.09958">
        <ele>779</ele>
        <time>2010-01-01T02:31:18Z</time>
      </trkpt>
      <trkpt lat="45.03249" lon="3.09997">
        <ele>780</ele>
        <time>2010-01-01T02:31:24Z</time>
      </trkpt>
      <trkpt lat="45.03281" lon="3.10027">
        <ele>778</ele>
        <time>2010-01-01T02:31:31Z</time>
      </trkpt>
      <trkpt lat="45.0329" lon="3.10035">
        <ele>778</ele>
        <time>2010-01-01T02:31:33Z</time>
      </trkpt>
      <trkpt lat="45.03315" lon="3.10057">
        <ele>777</ele>
        <time>2010-01-01T02:31:39Z</time>
      </trkpt>
      <trkpt lat="45.03337" lon="3.1007">
        <ele>776</ele>
        <time>2010-01-01T02:31:43Z</time>
      </trkpt>
      <trkpt lat="45.03343" lon="3.10081">
        <ele>775</ele>
        <time>2010-01-01T02:31:45Z</time>
      </trkpt>
      <trkpt lat="45.0335" lon="3.10078">
        <ele>775</ele>
        <time>2010-01-01T02:31:46Z</time>
      </trkpt>
      <trkpt lat="45.03352" lon="3.10063">
        <ele>776</ele>
        <time>2010-01-01T02:31:48Z</time>
      </trkpt>
      <trkpt lat="45.03345" lon="3.10059">
        <ele>776</ele>
        <time>2010-01-01T02:31:49Z</time>
      </trkpt>
      <trkpt lat="45.03341" lon="3.10061">
        <ele>777</ele>
        <time>2010-01-01T02:31:50Z</time>
      </trkpt>
      <trkpt lat="45.03337" lon="3.1007">
        <ele>776</ele>
        <time>2010-01-01T02:31:51Z</time>
      </trkpt>
      <trkpt lat="45.03343" lon="3.10081">
        <ele>775</ele>
        <time>2010-01-01T02:31:53Z</time>
      </trkpt>
      <trkpt lat="45.03345" lon="3.10132">
        <ele>775</ele>
        <time>2010-01-01T02:32:00Z</time>
      </trkpt>
      <trkpt lat="45.03347" lon="3.10153">
        <ele>776</ele>
        <time>2010-01-01T02:32:02Z</time>
      </trkpt>
      <trkpt lat="45.03347" lon="3.10177">
        <ele>777</ele>
        <time>2010-01-01T02:32:05Z</time>
      </trkpt>
      <trkpt lat="45.0335" lon="3.10196">
        <ele>777</ele>
        <time>2010-01-01T02:32:08Z</time>
      </trkpt>
      <trkpt lat="45.03356" lon="3.1025">
        <ele>777</ele>
        <time>2010-01-01T02:32:15Z</time>
      </trkpt>
      <trkpt lat="45.03356" lon="3.10261">
        <ele>777</ele>
        <time>2010-01-01T02:32:16Z</time>
      </trkpt>
      <trkpt lat="45.03361" lon="3.10342">
        <ele>775</ele>
        <time>2010-01-01T02:32:27Z</time>
      </trkpt>
      <trkpt lat="45.03367" lon="3.10452">
        <ele>773</ele>
        <time>2010-01-01T02:32:41Z</time>
      </trkpt>
      <trkpt lat="45.03368" lon="3.10469">
        <ele>773</ele>
        <time>2010-01-01T02:32:43Z</time>
      </trkpt>
      <trkpt lat="45.03375" lon="3.106">
        <ele>772</ele>
        <time>2010-01-01T02:33:00Z</time>
      </trkpt>
    </trkseg>
  </trk>
</gpx>